<?xml version='1.0' encoding='UTF-8'?><gpx version="1.1" creator="JPX - https://github.com/jenetics/jpx" xmlns="http://www.topografix.com/GPX/1/1"><trk><trkseg><trkpt lat="9.8991928" lon="-84.0919068"><ele>1114.0</ele><time>2026-04-02T11:35:01.978Z</time></trkpt><trkpt lat="9.8991142" lon="-84.0919626"><ele>1114.0</ele><time>2026-04-02T11:35:03.978Z</time></trkpt><trkpt lat="9.8990857" lon="-84.0920236"><ele>1114.0</ele><time>2026-04-02T11:35:05.977Z</time></trkpt><trkpt lat="9.8990753" lon="-84.0920875"><ele>1114.0</ele><time>2026-04-02T11:35:07.978Z</time></trkpt><trkpt lat="9.899071" lon="-84.0921604"><ele>1114.0</ele><time>2026-04-02T11:35:09.977Z</time></trkpt><trkpt lat="9.8990305" lon="-84.0922185"><ele>1114.0</ele><time>2026-04-02T11:35:11.978Z</time></trkpt><trkpt lat="9.8989253" lon="-84.0922217"><ele>1114.0</ele><time>2026-04-02T11:35:13.979Z</time></trkpt><trkpt lat="9.8987984" lon="-84.0922229"><ele>1114.0</ele><time>2026-04-02T11:35:16.979Z</time></trkpt><trkpt lat="9.8986912" lon="-84.0922165"><ele>1114.0</ele><time>2026-04-02T11:35:18.978Z</time></trkpt><trkpt lat="9.8986263" lon="-84.0922081"><ele>1114.0</ele><time>2026-04-02T11:35:19.977Z</time></trkpt><trkpt lat="9.8985035" lon="-84.0921981"><ele>1114.0</ele><time>2026-04-02T11:35:21.978Z</time></trkpt><trkpt lat="9.8984352" lon="-84.0921969"><ele>1114.1666666666665</ele><time>2026-04-02T11:35:22.978Z</time></trkpt><trkpt lat="9.8983619" lon="-84.0922042"><ele>1114.3333333333333</ele><time>2026-04-02T11:35:23.978Z</time></trkpt><trkpt lat="9.8982925" lon="-84.0922129"><ele>1114.5</ele><time>2026-04-02T11:35:24.978Z</time></trkpt><trkpt lat="9.8981821" lon="-84.0922194"><ele>1114.6666666666667</ele><time>2026-04-02T11:35:26.978Z</time></trkpt><trkpt lat="9.8980947" lon="-84.0922304"><ele>1114.8333333333335</ele><time>2026-04-02T11:35:28.978Z</time></trkpt><trkpt lat="9.8980092" lon="-84.0922355"><ele>1115.0</ele><time>2026-04-02T11:35:30.978Z</time></trkpt><trkpt lat="9.8979065" lon="-84.0922525"><ele>1115.0</ele><time>2026-04-02T11:35:32.978Z</time></trkpt><trkpt lat="9.8978169" lon="-84.0922828"><ele>1115.0</ele><time>2026-04-02T11:35:34.977Z</time></trkpt><trkpt lat="9.8977611" lon="-84.0923262"><ele>1115.0</ele><time>2026-04-02T11:35:36.978Z</time></trkpt><trkpt lat="9.897747" lon="-84.092407"><ele>1115.0</ele><time>2026-04-02T11:35:40.978Z</time></trkpt><trkpt lat="9.897824" lon="-84.0925175"><ele>1115.0</ele><time>2026-04-02T11:35:42.978Z</time></trkpt><trkpt lat="9.8978856" lon="-84.09259"><ele>1115.0</ele><time>2026-04-02T11:35:43.978Z</time></trkpt><trkpt lat="9.8979499" lon="-84.0926604"><ele>1115.0</ele><time>2026-04-02T11:35:44.978Z</time></trkpt><trkpt lat="9.8980235" lon="-84.092729"><ele>1115.0</ele><time>2026-04-02T11:35:45.977Z</time></trkpt><trkpt lat="9.8981004" lon="-84.0927886"><ele>1115.0</ele><time>2026-04-02T11:35:46.977Z</time></trkpt><trkpt lat="9.8981621" lon="-84.0928462"><ele>1115.0</ele><time>2026-04-02T11:35:47.977Z</time></trkpt><trkpt lat="9.898222" lon="-84.0929014"><ele>1115.0</ele><time>2026-04-02T11:35:48.978Z</time></trkpt><trkpt lat="9.8982693" lon="-84.0929495"><ele>1115.0</ele><time>2026-04-02T11:35:49.978Z</time></trkpt><trkpt lat="9.8983362" lon="-84.0930097"><ele>1115.0</ele><time>2026-04-02T11:35:51.977Z</time></trkpt><trkpt lat="9.8983915" lon="-84.0930651"><ele>1115.0</ele><time>2026-04-02T11:35:53.977Z</time></trkpt><trkpt lat="9.8984426" lon="-84.0931104"><ele>1115.0</ele><time>2026-04-02T11:35:54.978Z</time></trkpt><trkpt lat="9.8985062" lon="-84.0931708"><ele>1115.0</ele><time>2026-04-02T11:35:55.978Z</time></trkpt><trkpt lat="9.8985732" lon="-84.0932368"><ele>1115.1666666666667</ele><time>2026-04-02T11:35:56.977Z</time></trkpt><trkpt lat="9.8986475" lon="-84.0933093"><ele>1115.3333333333335</ele><time>2026-04-02T11:35:57.979Z</time></trkpt><trkpt lat="9.8987185" lon="-84.0933744"><ele>1115.5</ele><time>2026-04-02T11:35:58.978Z</time></trkpt><trkpt lat="9.898785" lon="-84.0934322"><ele>1115.6666666666667</ele><time>2026-04-02T11:35:59.978Z</time></trkpt><trkpt lat="9.8988462" lon="-84.0934816"><ele>1115.8333333333333</ele><time>2026-04-02T11:36:00.977Z</time></trkpt><trkpt lat="9.8988998" lon="-84.0935171"><ele>1116.0</ele><time>2026-04-02T11:36:01.977Z</time></trkpt><trkpt lat="9.898976" lon="-84.093567"><ele>1116.0</ele><time>2026-04-02T11:36:03.978Z</time></trkpt><trkpt lat="9.8990716" lon="-84.0936355"><ele>1116.0</ele><time>2026-04-02T11:36:05.979Z</time></trkpt><trkpt lat="9.8991413" lon="-84.0936754"><ele>1116.0</ele><time>2026-04-02T11:36:06.977Z</time></trkpt><trkpt lat="9.8992184" lon="-84.0937214"><ele>1116.0</ele><time>2026-04-02T11:36:07.978Z</time></trkpt><trkpt lat="9.899303" lon="-84.0937687"><ele>1116.0</ele><time>2026-04-02T11:36:08.977Z</time></trkpt><trkpt lat="9.8994076" lon="-84.093806"><ele>1115.25</ele><time>2026-04-02T11:36:09.976Z</time></trkpt><trkpt lat="9.8995234" lon="-84.0938431"><ele>1114.5</ele><time>2026-04-02T11:36:10.978Z</time></trkpt><trkpt lat="9.8996405" lon="-84.0938806"><ele>1113.75</ele><time>2026-04-02T11:36:11.978Z</time></trkpt><trkpt lat="9.8997498" lon="-84.0939164"><ele>1113.0</ele><time>2026-04-02T11:36:12.978Z</time></trkpt><trkpt lat="9.8998445" lon="-84.0939581"><ele>1113.0</ele><time>2026-04-02T11:36:13.977Z</time></trkpt><trkpt lat="9.899934" lon="-84.0940252"><ele>1113.0</ele><time>2026-04-02T11:36:14.978Z</time></trkpt><trkpt lat="9.9000135" lon="-84.0941063"><ele>1113.0</ele><time>2026-04-02T11:36:15.978Z</time></trkpt><trkpt lat="9.9000858" lon="-84.0942102"><ele>1113.0</ele><time>2026-04-02T11:36:16.978Z</time></trkpt><trkpt lat="9.9001492" lon="-84.0943306"><ele>1113.0</ele><time>2026-04-02T11:36:17.978Z</time></trkpt><trkpt lat="9.9002138" lon="-84.094462"><ele>1113.0</ele><time>2026-04-02T11:36:18.978Z</time></trkpt><trkpt lat="9.9002843" lon="-84.0945949"><ele>1113.0</ele><time>2026-04-02T11:36:19.979Z</time></trkpt><trkpt lat="9.9003555" lon="-84.094739"><ele>1113.0</ele><time>2026-04-02T11:36:20.977Z</time></trkpt><trkpt lat="9.9004042" lon="-84.0948783"><ele>1113.0</ele><time>2026-04-02T11:36:21.977Z</time></trkpt><trkpt lat="9.9004312" lon="-84.0950213"><ele>1113.0</ele><time>2026-04-02T11:36:22.978Z</time></trkpt><trkpt lat="9.9004282" lon="-84.0951596"><ele>1113.0</ele><time>2026-04-02T11:36:23.978Z</time></trkpt><trkpt lat="9.9004113" lon="-84.0952892"><ele>1113.25</ele><time>2026-04-02T11:36:24.977Z</time></trkpt><trkpt lat="9.9003975" lon="-84.0954264"><ele>1113.5</ele><time>2026-04-02T11:36:25.978Z</time></trkpt><trkpt lat="9.90037" lon="-84.0955765"><ele>1113.75</ele><time>2026-04-02T11:36:26.978Z</time></trkpt><trkpt lat="9.9003446" lon="-84.0957266"><ele>1114.0</ele><time>2026-04-02T11:36:27.978Z</time></trkpt><trkpt lat="9.9003232" lon="-84.095888"><ele>1115.0</ele><time>2026-04-02T11:36:28.977Z</time></trkpt><trkpt lat="9.9003061" lon="-84.096049"><ele>1116.0</ele><time>2026-04-02T11:36:29.978Z</time></trkpt><trkpt lat="9.9002911" lon="-84.0962118"><ele>1117.0</ele><time>2026-04-02T11:36:30.976Z</time></trkpt><trkpt lat="9.9002828" lon="-84.096377"><ele>1117.0</ele><time>2026-04-02T11:36:31.978Z</time></trkpt><trkpt lat="9.9002727" lon="-84.0965536"><ele>1117.0</ele><time>2026-04-02T11:36:32.976Z</time></trkpt><trkpt lat="9.9002472" lon="-84.096728"><ele>1117.0</ele><time>2026-04-02T11:36:33.979Z</time></trkpt><trkpt lat="9.9002185" lon="-84.096884"><ele>1118.0</ele><time>2026-04-02T11:36:34.977Z</time></trkpt><trkpt lat="9.900186" lon="-84.0970265"><ele>1119.0</ele><time>2026-04-02T11:36:35.978Z</time></trkpt><trkpt lat="9.9001564" lon="-84.0971611"><ele>1120.0</ele><time>2026-04-02T11:36:36.978Z</time></trkpt><trkpt lat="9.9001302" lon="-84.097289"><ele>1121.0</ele><time>2026-04-02T11:36:37.978Z</time></trkpt><trkpt lat="9.9000994" lon="-84.0974218"><ele>1122.5</ele><time>2026-04-02T11:36:38.978Z</time></trkpt><trkpt lat="9.9000728" lon="-84.0975453"><ele>1124.0</ele><time>2026-04-02T11:36:39.977Z</time></trkpt><trkpt lat="9.9000448" lon="-84.0976611"><ele>1125.5</ele><time>2026-04-02T11:36:40.978Z</time></trkpt><trkpt lat="9.9000284" lon="-84.0977693"><ele>1127.0</ele><time>2026-04-02T11:36:41.978Z</time></trkpt><trkpt lat="9.900028" lon="-84.0978751"><ele>1126.75</ele><time>2026-04-02T11:36:42.977Z</time></trkpt><trkpt lat="9.9000852" lon="-84.0979516"><ele>1126.5</ele><time>2026-04-02T11:36:43.978Z</time></trkpt><trkpt lat="9.9001526" lon="-84.098036"><ele>1126.25</ele><time>2026-04-02T11:36:44.977Z</time></trkpt><trkpt lat="9.9002197" lon="-84.0981376"><ele>1126.0</ele><time>2026-04-02T11:36:45.978Z</time></trkpt><trkpt lat="9.9002964" lon="-84.0982534"><ele>1126.0</ele><time>2026-04-02T11:36:46.978Z</time></trkpt><trkpt lat="9.9003733" lon="-84.0983744"><ele>1126.0</ele><time>2026-04-02T11:36:47.977Z</time></trkpt><trkpt lat="9.9004517" lon="-84.0985013"><ele>1126.0</ele><time>2026-04-02T11:36:48.976Z</time></trkpt><trkpt lat="9.9005292" lon="-84.0986396"><ele>1126.0</ele><time>2026-04-02T11:36:49.978Z</time></trkpt><trkpt lat="9.9005974" lon="-84.0987685"><ele>1126.0</ele><time>2026-04-02T11:36:50.978Z</time></trkpt><trkpt lat="9.9006572" lon="-84.0988906"><ele>1126.0</ele><time>2026-04-02T11:36:51.978Z</time></trkpt><trkpt lat="9.9007108" lon="-84.0989913"><ele>1126.0</ele><time>2026-04-02T11:36:52.978Z</time></trkpt><trkpt lat="9.9007552" lon="-84.0990893"><ele>1126.0</ele><time>2026-04-02T11:36:53.978Z</time></trkpt><trkpt lat="9.90078" lon="-84.0991826"><ele>1126.0</ele><time>2026-04-02T11:36:54.978Z</time></trkpt><trkpt lat="9.9008" lon="-84.0992558"><ele>1127.2</ele><time>2026-04-02T11:36:55.978Z</time></trkpt><trkpt lat="9.9008435" lon="-84.0993205"><ele>1128.3999999999999</ele><time>2026-04-02T11:36:56.978Z</time></trkpt><trkpt lat="9.9009082" lon="-84.0993622"><ele>1129.6</ele><time>2026-04-02T11:36:57.978Z</time></trkpt><trkpt lat="9.9010259" lon="-84.099366"><ele>1130.8</ele><time>2026-04-02T11:36:58.976Z</time></trkpt><trkpt lat="9.901147" lon="-84.0993895"><ele>1132.0</ele><time>2026-04-02T11:36:59.978Z</time></trkpt><trkpt lat="9.9012762" lon="-84.0994115"><ele>1132.0</ele><time>2026-04-02T11:37:00.977Z</time></trkpt><trkpt lat="9.9014131" lon="-84.0994368"><ele>1132.0</ele><time>2026-04-02T11:37:01.978Z</time></trkpt><trkpt lat="9.9015614" lon="-84.0994659"><ele>1132.0</ele><time>2026-04-02T11:37:02.978Z</time></trkpt><trkpt lat="9.9017158" lon="-84.0994931"><ele>1132.0</ele><time>2026-04-02T11:37:03.978Z</time></trkpt><trkpt lat="9.9018824" lon="-84.0995212"><ele>1131.5</ele><time>2026-04-02T11:37:04.978Z</time></trkpt><trkpt lat="9.9020435" lon="-84.0995524"><ele>1131.0</ele><time>2026-04-02T11:37:05.977Z</time></trkpt><trkpt lat="9.9021786" lon="-84.0995793"><ele>1130.5</ele><time>2026-04-02T11:37:06.978Z</time></trkpt><trkpt lat="9.9023098" lon="-84.0996029"><ele>1130.0</ele><time>2026-04-02T11:37:07.978Z</time></trkpt><trkpt lat="9.9024264" lon="-84.0996262"><ele>1130.0</ele><time>2026-04-02T11:37:08.977Z</time></trkpt><trkpt lat="9.9025343" lon="-84.0996498"><ele>1130.0</ele><time>2026-04-02T11:37:09.976Z</time></trkpt><trkpt lat="9.9026335" lon="-84.0996722"><ele>1130.0</ele><time>2026-04-02T11:37:10.977Z</time></trkpt><trkpt lat="9.9027256" lon="-84.09969"><ele>1130.0</ele><time>2026-04-02T11:37:11.977Z</time></trkpt><trkpt lat="9.9028129" lon="-84.0997078"><ele>1130.0</ele><time>2026-04-02T11:37:12.978Z</time></trkpt><trkpt lat="9.9028857" lon="-84.0997229"><ele>1129.6666666666667</ele><time>2026-04-02T11:37:13.978Z</time></trkpt><trkpt lat="9.9029565" lon="-84.0997369"><ele>1129.3333333333335</ele><time>2026-04-02T11:37:14.978Z</time></trkpt><trkpt lat="9.9030206" lon="-84.0997511"><ele>1129.0</ele><time>2026-04-02T11:37:15.978Z</time></trkpt><trkpt lat="9.903113" lon="-84.0997628"><ele>1128.6666666666667</ele><time>2026-04-02T11:37:17.977Z</time></trkpt><trkpt lat="9.9031788" lon="-84.0997733"><ele>1128.3333333333333</ele><time>2026-04-02T11:37:21.977Z</time></trkpt><trkpt lat="9.9033051" lon="-84.099794"><ele>1128.0</ele><time>2026-04-02T11:37:24.978Z</time></trkpt><trkpt lat="9.9033866" lon="-84.0998059"><ele>1128.0</ele><time>2026-04-02T11:37:25.978Z</time></trkpt><trkpt lat="9.9034782" lon="-84.0998218"><ele>1128.0</ele><time>2026-04-02T11:37:26.978Z</time></trkpt><trkpt lat="9.9035802" lon="-84.099844"><ele>1128.0</ele><time>2026-04-02T11:37:27.978Z</time></trkpt><trkpt lat="9.9036894" lon="-84.0998709"><ele>1128.0</ele><time>2026-04-02T11:37:28.979Z</time></trkpt><trkpt lat="9.9038062" lon="-84.0998962"><ele>1128.0</ele><time>2026-04-02T11:37:29.977Z</time></trkpt><trkpt lat="9.9039312" lon="-84.0999287"><ele>1128.25</ele><time>2026-04-02T11:37:30.978Z</time></trkpt><trkpt lat="9.9040495" lon="-84.0999482"><ele>1128.5</ele><time>2026-04-02T11:37:31.977Z</time></trkpt><trkpt lat="9.9041803" lon="-84.0999714"><ele>1128.75</ele><time>2026-04-02T11:37:32.978Z</time></trkpt><trkpt lat="9.9043212" lon="-84.0999963"><ele>1129.0</ele><time>2026-04-02T11:37:33.978Z</time></trkpt><trkpt lat="9.9044687" lon="-84.1000237"><ele>1129.3333333333333</ele><time>2026-04-02T11:37:34.978Z</time></trkpt><trkpt lat="9.9046266" lon="-84.100056"><ele>1129.6666666666667</ele><time>2026-04-02T11:37:35.978Z</time></trkpt><trkpt lat="9.9047887" lon="-84.100088"><ele>1130.0</ele><time>2026-04-02T11:37:36.978Z</time></trkpt><trkpt lat="9.9049537" lon="-84.100121"><ele>1129.6666666666667</ele><time>2026-04-02T11:37:37.978Z</time></trkpt><trkpt lat="9.9051163" lon="-84.1001521"><ele>1129.3333333333333</ele><time>2026-04-02T11:37:38.977Z</time></trkpt><trkpt lat="9.9052881" lon="-84.1001847"><ele>1129.0</ele><time>2026-04-02T11:37:39.977Z</time></trkpt><trkpt lat="9.9054619" lon="-84.1002223"><ele>1129.0</ele><time>2026-04-02T11:37:40.977Z</time></trkpt><trkpt lat="9.9056251" lon="-84.1002276"><ele>1129.0</ele><time>2026-04-02T11:37:41.977Z</time></trkpt><trkpt lat="9.9057795" lon="-84.1002161"><ele>1129.0</ele><time>2026-04-02T11:37:42.978Z</time></trkpt><trkpt lat="9.9059276" lon="-84.1001768"><ele>1128.5</ele><time>2026-04-02T11:37:43.978Z</time></trkpt><trkpt lat="9.9060597" lon="-84.1001162"><ele>1128.0</ele><time>2026-04-02T11:37:44.978Z</time></trkpt><trkpt lat="9.9061707" lon="-84.1000312"><ele>1127.5</ele><time>2026-04-02T11:37:45.977Z</time></trkpt><trkpt lat="9.906261" lon="-84.0999278"><ele>1127.0</ele><time>2026-04-02T11:37:46.978Z</time></trkpt><trkpt lat="9.9063461" lon="-84.0998264"><ele>1124.5</ele><time>2026-04-02T11:37:47.978Z</time></trkpt><trkpt lat="9.9064289" lon="-84.0997366"><ele>1122.0</ele><time>2026-04-02T11:37:48.978Z</time></trkpt><trkpt lat="9.9065096" lon="-84.0996609"><ele>1119.5</ele><time>2026-04-02T11:37:49.979Z</time></trkpt><trkpt lat="9.9066122" lon="-84.099606"><ele>1117.0</ele><time>2026-04-02T11:37:50.977Z</time></trkpt><trkpt lat="9.9067301" lon="-84.0995839"><ele>1114.25</ele><time>2026-04-02T11:37:51.978Z</time></trkpt><trkpt lat="9.9068589" lon="-84.0995939"><ele>1111.5</ele><time>2026-04-02T11:37:52.978Z</time></trkpt><trkpt lat="9.9069883" lon="-84.0996335"><ele>1108.75</ele><time>2026-04-02T11:37:53.978Z</time></trkpt><trkpt lat="9.9071209" lon="-84.0997099"><ele>1106.0</ele><time>2026-04-02T11:37:54.977Z</time></trkpt><trkpt lat="9.9072447" lon="-84.0997883"><ele>1106.0</ele><time>2026-04-02T11:37:55.977Z</time></trkpt><trkpt lat="9.9073683" lon="-84.0998674"><ele>1106.0</ele><time>2026-04-02T11:37:56.977Z</time></trkpt><trkpt lat="9.9074858" lon="-84.0999519"><ele>1106.0</ele><time>2026-04-02T11:37:57.977Z</time></trkpt><trkpt lat="9.9076006" lon="-84.1000283"><ele>1106.0</ele><time>2026-04-02T11:37:58.978Z</time></trkpt><trkpt lat="9.9077078" lon="-84.100102"><ele>1104.5</ele><time>2026-04-02T11:37:59.978Z</time></trkpt><trkpt lat="9.9078132" lon="-84.1001744"><ele>1103.0</ele><time>2026-04-02T11:38:00.977Z</time></trkpt><trkpt lat="9.907914" lon="-84.1002438"><ele>1101.5</ele><time>2026-04-02T11:38:01.978Z</time></trkpt><trkpt lat="9.9080126" lon="-84.1003068"><ele>1100.0</ele><time>2026-04-02T11:38:02.977Z</time></trkpt><trkpt lat="9.9081091" lon="-84.1003654"><ele>1100.0</ele><time>2026-04-02T11:38:03.978Z</time></trkpt><trkpt lat="9.9082083" lon="-84.100422"><ele>1100.0</ele><time>2026-04-02T11:38:04.976Z</time></trkpt><trkpt lat="9.9083164" lon="-84.1004604"><ele>1100.0</ele><time>2026-04-02T11:38:05.978Z</time></trkpt><trkpt lat="9.9084308" lon="-84.1004653"><ele>1100.0</ele><time>2026-04-02T11:38:06.977Z</time></trkpt><trkpt lat="9.9085249" lon="-84.1004306"><ele>1100.0</ele><time>2026-04-02T11:38:07.978Z</time></trkpt><trkpt lat="9.9086166" lon="-84.1003781"><ele>1099.75</ele><time>2026-04-02T11:38:08.978Z</time></trkpt><trkpt lat="9.9086861" lon="-84.1002966"><ele>1099.5</ele><time>2026-04-02T11:38:09.977Z</time></trkpt><trkpt lat="9.9087374" lon="-84.1001779"><ele>1099.25</ele><time>2026-04-02T11:38:10.978Z</time></trkpt><trkpt lat="9.9087835" lon="-84.1000508"><ele>1099.0</ele><time>2026-04-02T11:38:11.977Z</time></trkpt><trkpt lat="9.9088279" lon="-84.0999161"><ele>1102.75</ele><time>2026-04-02T11:38:12.977Z</time></trkpt><trkpt lat="9.9088616" lon="-84.0997754"><ele>1106.5</ele><time>2026-04-02T11:38:13.978Z</time></trkpt><trkpt lat="9.9088695" lon="-84.0996434"><ele>1110.25</ele><time>2026-04-02T11:38:14.978Z</time></trkpt><trkpt lat="9.90884" lon="-84.0995205"><ele>1114.0</ele><time>2026-04-02T11:38:15.978Z</time></trkpt><trkpt lat="9.9087693" lon="-84.0994103"><ele>1114.0</ele><time>2026-04-02T11:38:16.978Z</time></trkpt><trkpt lat="9.9086877" lon="-84.0993106"><ele>1114.0</ele><time>2026-04-02T11:38:17.979Z</time></trkpt><trkpt lat="9.9086079" lon="-84.0992088"><ele>1114.0</ele><time>2026-04-02T11:38:18.977Z</time></trkpt><trkpt lat="9.9085149" lon="-84.0991082"><ele>1114.0</ele><time>2026-04-02T11:38:19.977Z</time></trkpt><trkpt lat="9.9084694" lon="-84.098981"><ele>1114.5</ele><time>2026-04-02T11:38:20.977Z</time></trkpt><trkpt lat="9.908475" lon="-84.0988722"><ele>1115.0</ele><time>2026-04-02T11:38:21.977Z</time></trkpt><trkpt lat="9.90855" lon="-84.0987459"><ele>1115.5</ele><time>2026-04-02T11:38:22.977Z</time></trkpt><trkpt lat="9.9086297" lon="-84.0986407"><ele>1116.0</ele><time>2026-04-02T11:38:23.976Z</time></trkpt><trkpt lat="9.9087467" lon="-84.0985923"><ele>1116.0</ele><time>2026-04-02T11:38:24.978Z</time></trkpt><trkpt lat="9.9088694" lon="-84.0985755"><ele>1116.0</ele><time>2026-04-02T11:38:25.978Z</time></trkpt><trkpt lat="9.9089941" lon="-84.098594"><ele>1116.0</ele><time>2026-04-02T11:38:26.978Z</time></trkpt><trkpt lat="9.9091109" lon="-84.098647"><ele>1116.0</ele><time>2026-04-02T11:38:27.977Z</time></trkpt><trkpt lat="9.9092246" lon="-84.0987209"><ele>1117.0</ele><time>2026-04-02T11:38:28.978Z</time></trkpt><trkpt lat="9.9093372" lon="-84.0988003"><ele>1118.0</ele><time>2026-04-02T11:38:29.977Z</time></trkpt><trkpt lat="9.9094496" lon="-84.0988815"><ele>1119.0</ele><time>2026-04-02T11:38:30.978Z</time></trkpt><trkpt lat="9.9095597" lon="-84.0989544"><ele>1120.0</ele><time>2026-04-02T11:38:31.978Z</time></trkpt><trkpt lat="9.9096661" lon="-84.0990163"><ele>1120.0</ele><time>2026-04-02T11:38:32.977Z</time></trkpt><trkpt lat="9.9097675" lon="-84.0990721"><ele>1120.0</ele><time>2026-04-02T11:38:33.976Z</time></trkpt><trkpt lat="9.9098647" lon="-84.0991127"><ele>1120.0</ele><time>2026-04-02T11:38:34.978Z</time></trkpt><trkpt lat="9.9099688" lon="-84.0991442"><ele>1120.0</ele><time>2026-04-02T11:38:35.979Z</time></trkpt><trkpt lat="9.910072" lon="-84.0991678"><ele>1120.0</ele><time>2026-04-02T11:38:36.978Z</time></trkpt><trkpt lat="9.9101825" lon="-84.0991936"><ele>1119.6</ele><time>2026-04-02T11:38:37.977Z</time></trkpt><trkpt lat="9.9102941" lon="-84.0992205"><ele>1119.2</ele><time>2026-04-02T11:38:38.977Z</time></trkpt><trkpt lat="9.9103955" lon="-84.0992452"><ele>1118.8</ele><time>2026-04-02T11:38:39.979Z</time></trkpt><trkpt lat="9.9104764" lon="-84.0992647"><ele>1118.4</ele><time>2026-04-02T11:38:40.977Z</time></trkpt><trkpt lat="9.9105415" lon="-84.0992761"><ele>1118.0</ele><time>2026-04-02T11:38:41.977Z</time></trkpt><trkpt lat="9.9106538" lon="-84.099287"><ele>1118.0</ele><time>2026-04-02T11:38:43.977Z</time></trkpt><trkpt lat="9.91072" lon="-84.0992859"><ele>1118.0</ele><time>2026-04-02T11:38:44.977Z</time></trkpt><trkpt lat="9.9107923" lon="-84.0992578"><ele>1118.0</ele><time>2026-04-02T11:38:45.978Z</time></trkpt><trkpt lat="9.9108617" lon="-84.0992095"><ele>1118.0</ele><time>2026-04-02T11:38:46.977Z</time></trkpt><trkpt lat="9.9109314" lon="-84.0991608"><ele>1118.0</ele><time>2026-04-02T11:38:47.978Z</time></trkpt><trkpt lat="9.9110017" lon="-84.0991236"><ele>1118.0</ele><time>2026-04-02T11:38:48.979Z</time></trkpt><trkpt lat="9.9110801" lon="-84.0990969"><ele>1118.0</ele><time>2026-04-02T11:38:49.978Z</time></trkpt><trkpt lat="9.9111621" lon="-84.0990847"><ele>1118.0</ele><time>2026-04-02T11:38:50.977Z</time></trkpt><trkpt lat="9.9112366" lon="-84.099084"><ele>1118.0</ele><time>2026-04-02T11:38:51.977Z</time></trkpt><trkpt lat="9.9113105" lon="-84.0990994"><ele>1118.0</ele><time>2026-04-02T11:38:52.978Z</time></trkpt><trkpt lat="9.9113901" lon="-84.0991392"><ele>1118.0</ele><time>2026-04-02T11:38:53.978Z</time></trkpt><trkpt lat="9.9114604" lon="-84.0991928"><ele>1118.0</ele><time>2026-04-02T11:38:54.977Z</time></trkpt><trkpt lat="9.9114866" lon="-84.0992923"><ele>1118.0</ele><time>2026-04-02T11:38:55.977Z</time></trkpt><trkpt lat="9.9114827" lon="-84.099393"><ele>1118.0</ele><time>2026-04-02T11:38:56.977Z</time></trkpt><trkpt lat="9.9114514" lon="-84.0994944"><ele>1118.0</ele><time>2026-04-02T11:38:57.978Z</time></trkpt><trkpt lat="9.9114112" lon="-84.0995882"><ele>1118.0</ele><time>2026-04-02T11:38:58.978Z</time></trkpt><trkpt lat="9.9113834" lon="-84.0996723"><ele>1118.0</ele><time>2026-04-02T11:38:59.977Z</time></trkpt><trkpt lat="9.9113834" lon="-84.0997421"><ele>1118.0</ele><time>2026-04-02T11:39:00.977Z</time></trkpt><trkpt lat="9.911417" lon="-84.0998429"><ele>1118.0</ele><time>2026-04-02T11:39:02.977Z</time></trkpt><trkpt lat="9.9114496" lon="-84.099899"><ele>1118.0</ele><time>2026-04-02T11:39:03.977Z</time></trkpt><trkpt lat="9.9114848" lon="-84.0999815"><ele>1118.0</ele><time>2026-04-02T11:39:04.978Z</time></trkpt><trkpt lat="9.9115238" lon="-84.1000888"><ele>1118.0</ele><time>2026-04-02T11:39:05.977Z</time></trkpt><trkpt lat="9.9115587" lon="-84.1002114"><ele>1118.6666666666667</ele><time>2026-04-02T11:39:06.978Z</time></trkpt><trkpt lat="9.9116026" lon="-84.1003514"><ele>1119.3333333333333</ele><time>2026-04-02T11:39:07.978Z</time></trkpt><trkpt lat="9.9116564" lon="-84.1005065"><ele>1120.0</ele><time>2026-04-02T11:39:08.979Z</time></trkpt><trkpt lat="9.9117157" lon="-84.100671"><ele>1121.3333333333333</ele><time>2026-04-02T11:39:09.977Z</time></trkpt><trkpt lat="9.9117775" lon="-84.1008435"><ele>1122.6666666666667</ele><time>2026-04-02T11:39:10.977Z</time></trkpt><trkpt lat="9.9118381" lon="-84.1010206"><ele>1124.0</ele><time>2026-04-02T11:39:11.977Z</time></trkpt><trkpt lat="9.9118945" lon="-84.1011876"><ele>1124.0</ele><time>2026-04-02T11:39:12.978Z</time></trkpt><trkpt lat="9.9119449" lon="-84.1013463"><ele>1124.0</ele><time>2026-04-02T11:39:13.977Z</time></trkpt><trkpt lat="9.9119845" lon="-84.1015026"><ele>1124.0</ele><time>2026-04-02T11:39:14.977Z</time></trkpt><trkpt lat="9.9120183" lon="-84.1016656"><ele>1123.6666666666667</ele><time>2026-04-02T11:39:15.978Z</time></trkpt><trkpt lat="9.9120545" lon="-84.1018351"><ele>1123.3333333333333</ele><time>2026-04-02T11:39:16.978Z</time></trkpt><trkpt lat="9.9120975" lon="-84.1020098"><ele>1123.0</ele><time>2026-04-02T11:39:17.977Z</time></trkpt><trkpt lat="9.9121488" lon="-84.1021875"><ele>1123.0</ele><time>2026-04-02T11:39:18.978Z</time></trkpt><trkpt lat="9.9121992" lon="-84.1023614"><ele>1123.0</ele><time>2026-04-02T11:39:19.977Z</time></trkpt><trkpt lat="9.9122494" lon="-84.102525"><ele>1123.0</ele><time>2026-04-02T11:39:20.978Z</time></trkpt><trkpt lat="9.9123043" lon="-84.1026865"><ele>1122.6666666666665</ele><time>2026-04-02T11:39:21.979Z</time></trkpt><trkpt lat="9.9123602" lon="-84.1028512"><ele>1122.3333333333333</ele><time>2026-04-02T11:39:22.978Z</time></trkpt><trkpt lat="9.912414" lon="-84.1030214"><ele>1122.0</ele><time>2026-04-02T11:39:23.979Z</time></trkpt><trkpt lat="9.9124768" lon="-84.1032004"><ele>1120.6666666666667</ele><time>2026-04-02T11:39:24.979Z</time></trkpt><trkpt lat="9.9125422" lon="-84.1033774"><ele>1119.3333333333335</ele><time>2026-04-02T11:39:25.978Z</time></trkpt><trkpt lat="9.9126017" lon="-84.1035482"><ele>1118.0</ele><time>2026-04-02T11:39:26.977Z</time></trkpt><trkpt lat="9.9126576" lon="-84.1037089"><ele>1117.3333333333335</ele><time>2026-04-02T11:39:27.978Z</time></trkpt><trkpt lat="9.9127116" lon="-84.1038718"><ele>1116.6666666666667</ele><time>2026-04-02T11:39:28.977Z</time></trkpt><trkpt lat="9.9127702" lon="-84.1040376"><ele>1116.0</ele><time>2026-04-02T11:39:29.978Z</time></trkpt><trkpt lat="9.9128291" lon="-84.1042068"><ele>1114.3333333333333</ele><time>2026-04-02T11:39:30.978Z</time></trkpt><trkpt lat="9.9128921" lon="-84.104376"><ele>1112.6666666666665</ele><time>2026-04-02T11:39:31.978Z</time></trkpt><trkpt lat="9.9129556" lon="-84.1045363"><ele>1111.0</ele><time>2026-04-02T11:39:32.977Z</time></trkpt><trkpt lat="9.9130274" lon="-84.1046808"><ele>1111.0</ele><time>2026-04-02T11:39:33.977Z</time></trkpt><trkpt lat="9.91311" lon="-84.1048088"><ele>1111.0</ele><time>2026-04-02T11:39:34.978Z</time></trkpt><trkpt lat="9.9131964" lon="-84.1049281"><ele>1111.0</ele><time>2026-04-02T11:39:35.977Z</time></trkpt><trkpt lat="9.9132902" lon="-84.1050454"><ele>1111.0</ele><time>2026-04-02T11:39:36.977Z</time></trkpt><trkpt lat="9.9133901" lon="-84.1051612"><ele>1110.75</ele><time>2026-04-02T11:39:37.977Z</time></trkpt><trkpt lat="9.9134985" lon="-84.1052755"><ele>1110.5</ele><time>2026-04-02T11:39:38.979Z</time></trkpt><trkpt lat="9.9136151" lon="-84.1053673"><ele>1110.25</ele><time>2026-04-02T11:39:39.978Z</time></trkpt><trkpt lat="9.9137335" lon="-84.1054515"><ele>1110.0</ele><time>2026-04-02T11:39:40.977Z</time></trkpt><trkpt lat="9.913846" lon="-84.1055185"><ele>1110.0</ele><time>2026-04-02T11:39:41.977Z</time></trkpt><trkpt lat="9.9139639" lon="-84.1055824"><ele>1110.0</ele><time>2026-04-02T11:39:42.978Z</time></trkpt><trkpt lat="9.9140876" lon="-84.1056383"><ele>1110.0</ele><time>2026-04-02T11:39:43.978Z</time></trkpt><trkpt lat="9.9142068" lon="-84.1056812"><ele>1110.0</ele><time>2026-04-02T11:39:44.979Z</time></trkpt><trkpt lat="9.9143317" lon="-84.1057171"><ele>1110.25</ele><time>2026-04-02T11:39:45.977Z</time></trkpt><trkpt lat="9.9144619" lon="-84.1057498"><ele>1110.5</ele><time>2026-04-02T11:39:46.977Z</time></trkpt><trkpt lat="9.9145991" lon="-84.105778"><ele>1110.75</ele><time>2026-04-02T11:39:47.978Z</time></trkpt><trkpt lat="9.9147457" lon="-84.1058105"><ele>1111.0</ele><time>2026-04-02T11:39:48.978Z</time></trkpt><trkpt lat="9.9148964" lon="-84.1058415"><ele>1111.0</ele><time>2026-04-02T11:39:49.978Z</time></trkpt><trkpt lat="9.9150457" lon="-84.1058725"><ele>1111.0</ele><time>2026-04-02T11:39:50.978Z</time></trkpt><trkpt lat="9.915187" lon="-84.1058965"><ele>1111.0</ele><time>2026-04-02T11:39:51.978Z</time></trkpt><trkpt lat="9.9153221" lon="-84.105923"><ele>1111.0</ele><time>2026-04-02T11:39:52.977Z</time></trkpt><trkpt lat="9.9154561" lon="-84.1059519"><ele>1111.0</ele><time>2026-04-02T11:39:53.977Z</time></trkpt><trkpt lat="9.9155895" lon="-84.1059763"><ele>1111.0</ele><time>2026-04-02T11:39:54.977Z</time></trkpt><trkpt lat="9.9157275" lon="-84.1059995"><ele>1111.0</ele><time>2026-04-02T11:39:55.977Z</time></trkpt><trkpt lat="9.9158733" lon="-84.1060276"><ele>1111.0</ele><time>2026-04-02T11:39:56.978Z</time></trkpt><trkpt lat="9.9160257" lon="-84.1060591"><ele>1111.0</ele><time>2026-04-02T11:39:57.977Z</time></trkpt><trkpt lat="9.9161839" lon="-84.1060879"><ele>1111.0</ele><time>2026-04-02T11:39:58.978Z</time></trkpt><trkpt lat="9.9163456" lon="-84.1061184"><ele>1111.0</ele><time>2026-04-02T11:39:59.977Z</time></trkpt><trkpt lat="9.9165001" lon="-84.1061489"><ele>1111.0</ele><time>2026-04-02T11:40:00.978Z</time></trkpt><trkpt lat="9.9166467" lon="-84.1061728"><ele>1111.0</ele><time>2026-04-02T11:40:01.977Z</time></trkpt><trkpt lat="9.916788" lon="-84.1062016"><ele>1111.0</ele><time>2026-04-02T11:40:02.978Z</time></trkpt><trkpt lat="9.9169233" lon="-84.1062294"><ele>1111.0</ele><time>2026-04-02T11:40:03.978Z</time></trkpt><trkpt lat="9.9170654" lon="-84.1062593"><ele>1110.5</ele><time>2026-04-02T11:40:04.978Z</time></trkpt><trkpt lat="9.9172111" lon="-84.1062851"><ele>1110.0</ele><time>2026-04-02T11:40:05.978Z</time></trkpt><trkpt lat="9.9173576" lon="-84.1063135"><ele>1109.5</ele><time>2026-04-02T11:40:06.979Z</time></trkpt><trkpt lat="9.9175056" lon="-84.1063408"><ele>1109.0</ele><time>2026-04-02T11:40:07.977Z</time></trkpt><trkpt lat="9.9176555" lon="-84.1063725"><ele>1108.75</ele><time>2026-04-02T11:40:08.977Z</time></trkpt><trkpt lat="9.9178075" lon="-84.1063984"><ele>1108.5</ele><time>2026-04-02T11:40:09.978Z</time></trkpt><trkpt lat="9.9179449" lon="-84.1064228"><ele>1108.25</ele><time>2026-04-02T11:40:10.979Z</time></trkpt><trkpt lat="9.9180795" lon="-84.1064503"><ele>1108.0</ele><time>2026-04-02T11:40:11.977Z</time></trkpt><trkpt lat="9.9182179" lon="-84.1064706"><ele>1108.0</ele><time>2026-04-02T11:40:12.977Z</time></trkpt><trkpt lat="9.9183496" lon="-84.1064935"><ele>1108.0</ele><time>2026-04-02T11:40:13.978Z</time></trkpt><trkpt lat="9.9184788" lon="-84.1065165"><ele>1108.0</ele><time>2026-04-02T11:40:14.976Z</time></trkpt><trkpt lat="9.9186233" lon="-84.1065401"><ele>1108.0</ele><time>2026-04-02T11:40:15.977Z</time></trkpt><trkpt lat="9.9187725" lon="-84.1065612"><ele>1108.6666666666665</ele><time>2026-04-02T11:40:16.978Z</time></trkpt><trkpt lat="9.9189322" lon="-84.1065797"><ele>1109.3333333333333</ele><time>2026-04-02T11:40:17.979Z</time></trkpt><trkpt lat="9.9191044" lon="-84.1066025"><ele>1110.0</ele><time>2026-04-02T11:40:18.978Z</time></trkpt><trkpt lat="9.9192898" lon="-84.1066358"><ele>1110.3333333333333</ele><time>2026-04-02T11:40:19.978Z</time></trkpt><trkpt lat="9.9194678" lon="-84.1066691"><ele>1110.6666666666665</ele><time>2026-04-02T11:40:20.978Z</time></trkpt><trkpt lat="9.9196383" lon="-84.1067004"><ele>1111.0</ele><time>2026-04-02T11:40:21.978Z</time></trkpt><trkpt lat="9.9198062" lon="-84.1067357"><ele>1111.0</ele><time>2026-04-02T11:40:22.978Z</time></trkpt><trkpt lat="9.9199802" lon="-84.1067714"><ele>1111.0</ele><time>2026-04-02T11:40:23.977Z</time></trkpt><trkpt lat="9.9201469" lon="-84.1068045"><ele>1111.0</ele><time>2026-04-02T11:40:24.976Z</time></trkpt><trkpt lat="9.9203108" lon="-84.1068333"><ele>1111.3333333333333</ele><time>2026-04-02T11:40:25.977Z</time></trkpt><trkpt lat="9.9204673" lon="-84.1068618"><ele>1111.6666666666667</ele><time>2026-04-02T11:40:26.977Z</time></trkpt><trkpt lat="9.9206305" lon="-84.1068895"><ele>1112.0</ele><time>2026-04-02T11:40:27.978Z</time></trkpt><trkpt lat="9.9207865" lon="-84.1069181"><ele>1114.3333333333335</ele><time>2026-04-02T11:40:28.977Z</time></trkpt><trkpt lat="9.920936" lon="-84.1069437"><ele>1116.6666666666667</ele><time>2026-04-02T11:40:29.977Z</time></trkpt><trkpt lat="9.9210841" lon="-84.1069671"><ele>1119.0</ele><time>2026-04-02T11:40:30.978Z</time></trkpt><trkpt lat="9.9212316" lon="-84.1069935"><ele>1119.0</ele><time>2026-04-02T11:40:31.978Z</time></trkpt><trkpt lat="9.9213849" lon="-84.1070183"><ele>1119.0</ele><time>2026-04-02T11:40:32.977Z</time></trkpt><trkpt lat="9.9215489" lon="-84.1070521"><ele>1119.0</ele><time>2026-04-02T11:40:33.977Z</time></trkpt><trkpt lat="9.9217105" lon="-84.1070952"><ele>1121.0</ele><time>2026-04-02T11:40:34.977Z</time></trkpt><trkpt lat="9.9218724" lon="-84.1071492"><ele>1123.0</ele><time>2026-04-02T11:40:35.977Z</time></trkpt><trkpt lat="9.9220394" lon="-84.1072081"><ele>1125.0</ele><time>2026-04-02T11:40:36.977Z</time></trkpt><trkpt lat="9.9222064" lon="-84.107273"><ele>1125.0</ele><time>2026-04-02T11:40:37.977Z</time></trkpt><trkpt lat="9.9223697" lon="-84.1073443"><ele>1125.0</ele><time>2026-04-02T11:40:38.979Z</time></trkpt><trkpt lat="9.9225254" lon="-84.1074331"><ele>1125.0</ele><time>2026-04-02T11:40:39.979Z</time></trkpt><trkpt lat="9.9226782" lon="-84.1075225"><ele>1124.3333333333333</ele><time>2026-04-02T11:40:40.977Z</time></trkpt><trkpt lat="9.9228287" lon="-84.1076237"><ele>1123.6666666666665</ele><time>2026-04-02T11:40:41.977Z</time></trkpt><trkpt lat="9.9229607" lon="-84.1077235"><ele>1123.0</ele><time>2026-04-02T11:40:42.976Z</time></trkpt><trkpt lat="9.9230912" lon="-84.1078306"><ele>1123.0</ele><time>2026-04-02T11:40:43.977Z</time></trkpt><trkpt lat="9.9232203" lon="-84.1079421"><ele>1123.0</ele><time>2026-04-02T11:40:44.977Z</time></trkpt><trkpt lat="9.923344" lon="-84.1080628"><ele>1123.0</ele><time>2026-04-02T11:40:45.977Z</time></trkpt><trkpt lat="9.9234591" lon="-84.1081832"><ele>1123.0</ele><time>2026-04-02T11:40:46.977Z</time></trkpt><trkpt lat="9.9235644" lon="-84.1083019"><ele>1123.0</ele><time>2026-04-02T11:40:47.977Z</time></trkpt><trkpt lat="9.9236605" lon="-84.108424"><ele>1123.0</ele><time>2026-04-02T11:40:48.977Z</time></trkpt><trkpt lat="9.9237551" lon="-84.1085584"><ele>1123.0</ele><time>2026-04-02T11:40:49.977Z</time></trkpt><trkpt lat="9.9238438" lon="-84.108701"><ele>1123.0</ele><time>2026-04-02T11:40:50.978Z</time></trkpt><trkpt lat="9.9239294" lon="-84.1088479"><ele>1123.0</ele><time>2026-04-02T11:40:51.978Z</time></trkpt><trkpt lat="9.9240112" lon="-84.1089892"><ele>1123.3333333333333</ele><time>2026-04-02T11:40:52.978Z</time></trkpt><trkpt lat="9.9240922" lon="-84.1091326"><ele>1123.6666666666667</ele><time>2026-04-02T11:40:53.978Z</time></trkpt><trkpt lat="9.9241691" lon="-84.109267"><ele>1124.0</ele><time>2026-04-02T11:40:54.978Z</time></trkpt><trkpt lat="9.924241" lon="-84.1094013"><ele>1124.0</ele><time>2026-04-02T11:40:55.977Z</time></trkpt><trkpt lat="9.9243155" lon="-84.1095335"><ele>1124.0</ele><time>2026-04-02T11:40:56.978Z</time></trkpt><trkpt lat="9.9243891" lon="-84.1096689"><ele>1124.0</ele><time>2026-04-02T11:40:57.978Z</time></trkpt><trkpt lat="9.9244605" lon="-84.1097998"><ele>1123.0</ele><time>2026-04-02T11:40:58.977Z</time></trkpt><trkpt lat="9.9245299" lon="-84.1099267"><ele>1122.0</ele><time>2026-04-02T11:40:59.978Z</time></trkpt><trkpt lat="9.924597" lon="-84.1100474"><ele>1121.0</ele><time>2026-04-02T11:41:00.977Z</time></trkpt><trkpt lat="9.9246628" lon="-84.1101672"><ele>1120.0</ele><time>2026-04-02T11:41:01.977Z</time></trkpt><trkpt lat="9.9247287" lon="-84.1102898"><ele>1120.0</ele><time>2026-04-02T11:41:02.979Z</time></trkpt><trkpt lat="9.9247989" lon="-84.1104169"><ele>1120.0</ele><time>2026-04-02T11:41:03.979Z</time></trkpt><trkpt lat="9.9248712" lon="-84.1105454"><ele>1120.0</ele><time>2026-04-02T11:41:04.977Z</time></trkpt><trkpt lat="9.924947" lon="-84.1106795"><ele>1120.0</ele><time>2026-04-02T11:41:05.977Z</time></trkpt><trkpt lat="9.9250176" lon="-84.110809"><ele>1119.25</ele><time>2026-04-02T11:41:06.978Z</time></trkpt><trkpt lat="9.9250918" lon="-84.1109298"><ele>1118.5</ele><time>2026-04-02T11:41:07.977Z</time></trkpt><trkpt lat="9.9251598" lon="-84.1110515"><ele>1117.75</ele><time>2026-04-02T11:41:08.978Z</time></trkpt><trkpt lat="9.9252263" lon="-84.1111678"><ele>1117.0</ele><time>2026-04-02T11:41:09.977Z</time></trkpt><trkpt lat="9.9252913" lon="-84.111289"><ele>1117.0</ele><time>2026-04-02T11:41:10.978Z</time></trkpt><trkpt lat="9.9253599" lon="-84.1114146"><ele>1117.0</ele><time>2026-04-02T11:41:11.978Z</time></trkpt><trkpt lat="9.925429" lon="-84.1115433"><ele>1117.0</ele><time>2026-04-02T11:41:12.977Z</time></trkpt><trkpt lat="9.9254963" lon="-84.1116645"><ele>1117.0</ele><time>2026-04-02T11:41:13.977Z</time></trkpt><trkpt lat="9.9255669" lon="-84.1117855"><ele>1115.75</ele><time>2026-04-02T11:41:14.978Z</time></trkpt><trkpt lat="9.9256278" lon="-84.1119045"><ele>1114.5</ele><time>2026-04-02T11:41:15.977Z</time></trkpt><trkpt lat="9.9256893" lon="-84.112016"><ele>1113.25</ele><time>2026-04-02T11:41:16.977Z</time></trkpt><trkpt lat="9.9257439" lon="-84.1121199"><ele>1112.0</ele><time>2026-04-02T11:41:17.976Z</time></trkpt><trkpt lat="9.9257982" lon="-84.1122189"><ele>1112.0</ele><time>2026-04-02T11:41:18.978Z</time></trkpt><trkpt lat="9.9258458" lon="-84.1123129"><ele>1112.0</ele><time>2026-04-02T11:41:19.977Z</time></trkpt><trkpt lat="9.9258933" lon="-84.1123973"><ele>1112.0</ele><time>2026-04-02T11:41:20.978Z</time></trkpt><trkpt lat="9.9259376" lon="-84.1124754"><ele>1112.0</ele><time>2026-04-02T11:41:21.977Z</time></trkpt><trkpt lat="9.9259716" lon="-84.1125439"><ele>1112.0</ele><time>2026-04-02T11:41:22.977Z</time></trkpt><trkpt lat="9.9260056" lon="-84.1126046"><ele>1112.0</ele><time>2026-04-02T11:41:23.977Z</time></trkpt><trkpt lat="9.9260601" lon="-84.1127001"><ele>1111.4</ele><time>2026-04-02T11:41:25.977Z</time></trkpt><trkpt lat="9.9261011" lon="-84.1127716"><ele>1110.8000000000002</ele><time>2026-04-02T11:41:28.977Z</time></trkpt><trkpt lat="9.9261314" lon="-84.1128362"><ele>1110.2</ele><time>2026-04-02T11:42:09.978Z</time></trkpt><trkpt lat="9.9261954" lon="-84.1129495"><ele>1109.6000000000001</ele><time>2026-04-02T11:42:11.978Z</time></trkpt><trkpt lat="9.9262356" lon="-84.1130269"><ele>1109.0</ele><time>2026-04-02T11:42:12.978Z</time></trkpt><trkpt lat="9.9263015" lon="-84.1131466"><ele>1108.0</ele><time>2026-04-02T11:42:13.977Z</time></trkpt><trkpt lat="9.9263769" lon="-84.1132848"><ele>1107.0</ele><time>2026-04-02T11:42:14.977Z</time></trkpt><trkpt lat="9.9264655" lon="-84.1134472"><ele>1106.0</ele><time>2026-04-02T11:42:15.977Z</time></trkpt><trkpt lat="9.9265747" lon="-84.1136507"><ele>1106.0</ele><time>2026-04-02T11:42:16.978Z</time></trkpt><trkpt lat="9.9266912" lon="-84.1138705"><ele>1106.0</ele><time>2026-04-02T11:42:17.977Z</time></trkpt><trkpt lat="9.9268127" lon="-84.1141011"><ele>1104.0</ele><time>2026-04-02T11:42:18.977Z</time></trkpt><trkpt lat="9.9269499" lon="-84.1143661"><ele>1102.0</ele><time>2026-04-02T11:42:19.977Z</time></trkpt><trkpt lat="9.9270923" lon="-84.1146278"><ele>1102.0</ele><time>2026-04-02T11:42:20.977Z</time></trkpt><trkpt lat="9.9272371" lon="-84.1148798"><ele>1102.0</ele><time>2026-04-02T11:42:21.976Z</time></trkpt><trkpt lat="9.9273907" lon="-84.1151169"><ele>1097.5</ele><time>2026-04-02T11:42:22.977Z</time></trkpt><trkpt lat="9.9275496" lon="-84.1153322"><ele>1093.0</ele><time>2026-04-02T11:42:23.977Z</time></trkpt><trkpt lat="9.9277207" lon="-84.1155287"><ele>1093.0</ele><time>2026-04-02T11:42:24.977Z</time></trkpt><trkpt lat="9.9279147" lon="-84.1157102"><ele>1093.0</ele><time>2026-04-02T11:42:25.977Z</time></trkpt><trkpt lat="9.9281227" lon="-84.1158687"><ele>1088.5</ele><time>2026-04-02T11:42:26.978Z</time></trkpt><trkpt lat="9.9283493" lon="-84.1160115"><ele>1084.0</ele><time>2026-04-02T11:42:27.976Z</time></trkpt><trkpt lat="9.928595" lon="-84.1161302"><ele>1084.0</ele><time>2026-04-02T11:42:28.978Z</time></trkpt><trkpt lat="9.9288551" lon="-84.116226"><ele>1084.0</ele><time>2026-04-02T11:42:29.976Z</time></trkpt><trkpt lat="9.9291299" lon="-84.1162918"><ele>1078.0</ele><time>2026-04-02T11:42:30.976Z</time></trkpt><trkpt lat="9.9294108" lon="-84.1163372"><ele>1072.0</ele><time>2026-04-02T11:42:31.978Z</time></trkpt><trkpt lat="9.9296997" lon="-84.1163485"><ele>1072.0</ele><time>2026-04-02T11:42:32.976Z</time></trkpt><trkpt lat="9.9300032" lon="-84.1163479"><ele>1072.0</ele><time>2026-04-02T11:42:33.977Z</time></trkpt><trkpt lat="9.9303316" lon="-84.116336"><ele>1071.5</ele><time>2026-04-02T11:42:34.977Z</time></trkpt><trkpt lat="9.9306706" lon="-84.1163282"><ele>1071.0</ele><time>2026-04-02T11:42:35.977Z</time></trkpt><trkpt lat="9.9310283" lon="-84.1163222"><ele>1071.0</ele><time>2026-04-02T11:42:36.978Z</time></trkpt><trkpt lat="9.9313938" lon="-84.1163177"><ele>1071.0</ele><time>2026-04-02T11:42:37.977Z</time></trkpt><trkpt lat="9.9317668" lon="-84.116308"><ele>1078.0</ele><time>2026-04-02T11:42:38.977Z</time></trkpt><trkpt lat="9.9321481" lon="-84.1162964"><ele>1085.0</ele><time>2026-04-02T11:42:39.978Z</time></trkpt><trkpt lat="9.9325385" lon="-84.1162908"><ele>1090.0</ele><time>2026-04-02T11:42:40.977Z</time></trkpt><trkpt lat="9.9329062" lon="-84.1162922"><ele>1095.0</ele><time>2026-04-02T11:42:41.978Z</time></trkpt><trkpt lat="9.9332604" lon="-84.1163012"><ele>1095.5</ele><time>2026-04-02T11:42:42.976Z</time></trkpt><trkpt lat="9.9336098" lon="-84.1163117"><ele>1096.0</ele><time>2026-04-02T11:42:43.978Z</time></trkpt><trkpt lat="9.9339609" lon="-84.1163265"><ele>1097.5</ele><time>2026-04-02T11:42:44.977Z</time></trkpt><trkpt lat="9.9343068" lon="-84.1163429"><ele>1099.0</ele><time>2026-04-02T11:42:45.978Z</time></trkpt><trkpt lat="9.9346436" lon="-84.1163684"><ele>1099.0</ele><time>2026-04-02T11:42:46.977Z</time></trkpt><trkpt lat="9.9349596" lon="-84.1164012"><ele>1099.0</ele><time>2026-04-02T11:42:47.978Z</time></trkpt><trkpt lat="9.9352795" lon="-84.116434"><ele>1098.0</ele><time>2026-04-02T11:42:48.977Z</time></trkpt><trkpt lat="9.9355978" lon="-84.1164707"><ele>1097.0</ele><time>2026-04-02T11:42:49.977Z</time></trkpt><trkpt lat="9.9359034" lon="-84.1165015"><ele>1097.0</ele><time>2026-04-02T11:42:50.977Z</time></trkpt><trkpt lat="9.9362024" lon="-84.1165257"><ele>1097.0</ele><time>2026-04-02T11:42:51.976Z</time></trkpt><trkpt lat="9.9364991" lon="-84.1165486"><ele>1097.5</ele><time>2026-04-02T11:42:52.977Z</time></trkpt><trkpt lat="9.9367946" lon="-84.1165599"><ele>1098.0</ele><time>2026-04-02T11:42:53.976Z</time></trkpt><trkpt lat="9.9370736" lon="-84.1165786"><ele>1098.0</ele><time>2026-04-02T11:42:54.977Z</time></trkpt><trkpt lat="9.9373497" lon="-84.1166035"><ele>1098.0</ele><time>2026-04-02T11:42:55.978Z</time></trkpt><trkpt lat="9.9376219" lon="-84.116633"><ele>1099.0</ele><time>2026-04-02T11:42:56.977Z</time></trkpt><trkpt lat="9.9378864" lon="-84.1166616"><ele>1100.0</ele><time>2026-04-02T11:42:57.978Z</time></trkpt><trkpt lat="9.9381433" lon="-84.1166961"><ele>1099.5</ele><time>2026-04-02T11:42:58.978Z</time></trkpt><trkpt lat="9.9383861" lon="-84.1167396"><ele>1099.0</ele><time>2026-04-02T11:42:59.977Z</time></trkpt><trkpt lat="9.9386313" lon="-84.1167937"><ele>1099.0</ele><time>2026-04-02T11:43:00.977Z</time></trkpt><trkpt lat="9.9388807" lon="-84.1168562"><ele>1099.0</ele><time>2026-04-02T11:43:01.977Z</time></trkpt><trkpt lat="9.9391476" lon="-84.116908"><ele>1098.0</ele><time>2026-04-02T11:43:02.978Z</time></trkpt><trkpt lat="9.9394064" lon="-84.1169554"><ele>1097.0</ele><time>2026-04-02T11:43:03.977Z</time></trkpt><trkpt lat="9.9396749" lon="-84.1169897"><ele>1097.0</ele><time>2026-04-02T11:43:04.978Z</time></trkpt><trkpt lat="9.9399541" lon="-84.1170172"><ele>1097.0</ele><time>2026-04-02T11:43:05.977Z</time></trkpt><trkpt lat="9.9402361" lon="-84.1170429"><ele>1098.5</ele><time>2026-04-02T11:43:06.977Z</time></trkpt><trkpt lat="9.9405213" lon="-84.1170746"><ele>1100.0</ele><time>2026-04-02T11:43:07.978Z</time></trkpt><trkpt lat="9.9407957" lon="-84.1171047"><ele>1099.0</ele><time>2026-04-02T11:43:08.977Z</time></trkpt><trkpt lat="9.9410591" lon="-84.1171235"><ele>1098.0</ele><time>2026-04-02T11:43:09.978Z</time></trkpt><trkpt lat="9.9413093" lon="-84.1171235"><ele>1098.0</ele><time>2026-04-02T11:43:10.977Z</time></trkpt><trkpt lat="9.9415754" lon="-84.1170944"><ele>1098.0</ele><time>2026-04-02T11:43:11.977Z</time></trkpt><trkpt lat="9.9418558" lon="-84.1170514"><ele>1098.0</ele><time>2026-04-02T11:43:12.977Z</time></trkpt><trkpt lat="9.9421382" lon="-84.1170054"><ele>1098.0</ele><time>2026-04-02T11:43:13.977Z</time></trkpt><trkpt lat="9.9424105" lon="-84.1169467"><ele>1095.5</ele><time>2026-04-02T11:43:14.977Z</time></trkpt><trkpt lat="9.9426636" lon="-84.1168677"><ele>1093.0</ele><time>2026-04-02T11:43:15.978Z</time></trkpt><trkpt lat="9.9429013" lon="-84.1167649"><ele>1093.0</ele><time>2026-04-02T11:43:16.977Z</time></trkpt><trkpt lat="9.9431248" lon="-84.1166362"><ele>1093.0</ele><time>2026-04-02T11:43:17.977Z</time></trkpt><trkpt lat="9.9433327" lon="-84.1164729"><ele>1091.5</ele><time>2026-04-02T11:43:18.977Z</time></trkpt><trkpt lat="9.9435397" lon="-84.1162843"><ele>1090.0</ele><time>2026-04-02T11:43:19.977Z</time></trkpt><trkpt lat="9.9437482" lon="-84.1160801"><ele>1090.0</ele><time>2026-04-02T11:43:20.978Z</time></trkpt><trkpt lat="9.9439678" lon="-84.1158476"><ele>1090.0</ele><time>2026-04-02T11:43:21.977Z</time></trkpt><trkpt lat="9.9441909" lon="-84.1156153"><ele>1085.5</ele><time>2026-04-02T11:43:22.977Z</time></trkpt><trkpt lat="9.9444047" lon="-84.1153862"><ele>1081.0</ele><time>2026-04-02T11:43:23.977Z</time></trkpt><trkpt lat="9.9446024" lon="-84.1151578"><ele>1081.0</ele><time>2026-04-02T11:43:24.978Z</time></trkpt><trkpt lat="9.9447772" lon="-84.114925"><ele>1081.0</ele><time>2026-04-02T11:43:25.977Z</time></trkpt><trkpt lat="9.9449475" lon="-84.1146923"><ele>1076.0</ele><time>2026-04-02T11:43:26.977Z</time></trkpt><trkpt lat="9.9450961" lon="-84.1144677"><ele>1071.0</ele><time>2026-04-02T11:43:27.977Z</time></trkpt><trkpt lat="9.9452304" lon="-84.1142482"><ele>1078.5</ele><time>2026-04-02T11:43:28.978Z</time></trkpt><trkpt lat="9.9453506" lon="-84.1140203"><ele>1086.0</ele><time>2026-04-02T11:43:29.977Z</time></trkpt><trkpt lat="9.9454508" lon="-84.1137806"><ele>1086.0</ele><time>2026-04-02T11:43:30.977Z</time></trkpt><trkpt lat="9.9455252" lon="-84.1135422"><ele>1086.0</ele><time>2026-04-02T11:43:31.977Z</time></trkpt><trkpt lat="9.9455846" lon="-84.1133155"><ele>1087.0</ele><time>2026-04-02T11:43:32.978Z</time></trkpt><trkpt lat="9.9456293" lon="-84.1130919"><ele>1088.0</ele><time>2026-04-02T11:43:33.977Z</time></trkpt><trkpt lat="9.9456728" lon="-84.1128611"><ele>1088.0</ele><time>2026-04-02T11:43:34.976Z</time></trkpt><trkpt lat="9.9457024" lon="-84.112616"><ele>1088.0</ele><time>2026-04-02T11:43:35.977Z</time></trkpt><trkpt lat="9.9457254" lon="-84.1123622"><ele>1089.0</ele><time>2026-04-02T11:43:36.978Z</time></trkpt><trkpt lat="9.9457494" lon="-84.1121056"><ele>1090.0</ele><time>2026-04-02T11:43:37.978Z</time></trkpt><trkpt lat="9.9457681" lon="-84.1118681"><ele>1090.0</ele><time>2026-04-02T11:43:38.977Z</time></trkpt><trkpt lat="9.945786" lon="-84.1116515"><ele>1090.0</ele><time>2026-04-02T11:43:39.976Z</time></trkpt><trkpt lat="9.9458023" lon="-84.1114458"><ele>1090.0</ele><time>2026-04-02T11:43:40.978Z</time></trkpt><trkpt lat="9.9458193" lon="-84.1112417"><ele>1090.3333333333333</ele><time>2026-04-02T11:43:41.977Z</time></trkpt><trkpt lat="9.9458362" lon="-84.1110359"><ele>1090.6666666666667</ele><time>2026-04-02T11:43:42.979Z</time></trkpt><trkpt lat="9.9458527" lon="-84.1108425"><ele>1091.0</ele><time>2026-04-02T11:43:43.976Z</time></trkpt><trkpt lat="9.9458663" lon="-84.1106576"><ele>1094.6666666666667</ele><time>2026-04-02T11:43:44.977Z</time></trkpt><trkpt lat="9.9458847" lon="-84.1104906"><ele>1098.3333333333333</ele><time>2026-04-02T11:43:45.977Z</time></trkpt><trkpt lat="9.9458963" lon="-84.110324"><ele>1102.0</ele><time>2026-04-02T11:43:46.977Z</time></trkpt><trkpt lat="9.945906" lon="-84.1101595"><ele>1102.0</ele><time>2026-04-02T11:43:47.977Z</time></trkpt><trkpt lat="9.9459189" lon="-84.1099974"><ele>1102.0</ele><time>2026-04-02T11:43:48.977Z</time></trkpt><trkpt lat="9.9459339" lon="-84.1098438"><ele>1102.0</ele><time>2026-04-02T11:43:49.978Z</time></trkpt><trkpt lat="9.9459475" lon="-84.1096893"><ele>1102.25</ele><time>2026-04-02T11:43:50.977Z</time></trkpt><trkpt lat="9.9459597" lon="-84.1095345"><ele>1102.5</ele><time>2026-04-02T11:43:51.977Z</time></trkpt><trkpt lat="9.945971" lon="-84.1093794"><ele>1102.75</ele><time>2026-04-02T11:43:52.977Z</time></trkpt><trkpt lat="9.9459788" lon="-84.1092359"><ele>1103.0</ele><time>2026-04-02T11:43:53.977Z</time></trkpt><trkpt lat="9.9459895" lon="-84.1090971"><ele>1103.5</ele><time>2026-04-02T11:43:54.977Z</time></trkpt><trkpt lat="9.9460014" lon="-84.1089572"><ele>1104.0</ele><time>2026-04-02T11:43:55.977Z</time></trkpt><trkpt lat="9.9460138" lon="-84.1088254"><ele>1104.5</ele><time>2026-04-02T11:43:56.977Z</time></trkpt><trkpt lat="9.9460226" lon="-84.1087055"><ele>1105.0</ele><time>2026-04-02T11:43:57.977Z</time></trkpt><trkpt lat="9.9460345" lon="-84.1085934"><ele>1105.0</ele><time>2026-04-02T11:43:58.977Z</time></trkpt><trkpt lat="9.9460367" lon="-84.1084768"><ele>1105.0</ele><time>2026-04-02T11:43:59.977Z</time></trkpt><trkpt lat="9.9460377" lon="-84.108359"><ele>1105.0</ele><time>2026-04-02T11:44:00.977Z</time></trkpt><trkpt lat="9.9460399" lon="-84.1082488"><ele>1105.0</ele><time>2026-04-02T11:44:01.977Z</time></trkpt><trkpt lat="9.9460424" lon="-84.1081387"><ele>1105.0</ele><time>2026-04-02T11:44:02.978Z</time></trkpt><trkpt lat="9.94605" lon="-84.1080217"><ele>1105.25</ele><time>2026-04-02T11:44:03.977Z</time></trkpt><trkpt lat="9.9460553" lon="-84.1078949"><ele>1105.5</ele><time>2026-04-02T11:44:04.977Z</time></trkpt><trkpt lat="9.9460517" lon="-84.1077695"><ele>1105.75</ele><time>2026-04-02T11:44:05.977Z</time></trkpt><trkpt lat="9.9460374" lon="-84.1076561"><ele>1106.0</ele><time>2026-04-02T11:44:06.976Z</time></trkpt><trkpt lat="9.9460033" lon="-84.1075572"><ele>1106.0</ele><time>2026-04-02T11:44:07.977Z</time></trkpt><trkpt lat="9.9459495" lon="-84.1074795"><ele>1106.0</ele><time>2026-04-02T11:44:08.977Z</time></trkpt><trkpt lat="9.9458735" lon="-84.1074237"><ele>1106.0</ele><time>2026-04-02T11:44:09.977Z</time></trkpt><trkpt lat="9.9457831" lon="-84.1073972"><ele>1106.0</ele><time>2026-04-02T11:44:10.977Z</time></trkpt><trkpt lat="9.9456908" lon="-84.1074012"><ele>1106.0</ele><time>2026-04-02T11:44:11.977Z</time></trkpt><trkpt lat="9.945601" lon="-84.1074332"><ele>1104.2</ele><time>2026-04-02T11:44:12.977Z</time></trkpt><trkpt lat="9.9455244" lon="-84.1074917"><ele>1102.3999999999999</ele><time>2026-04-02T11:44:13.977Z</time></trkpt><trkpt lat="9.945475" lon="-84.1075644"><ele>1100.6</ele><time>2026-04-02T11:44:14.977Z</time></trkpt><trkpt lat="9.9454413" lon="-84.1076557"><ele>1098.8</ele><time>2026-04-02T11:44:15.978Z</time></trkpt><trkpt lat="9.9454383" lon="-84.107748"><ele>1097.0</ele><time>2026-04-02T11:44:16.977Z</time></trkpt><trkpt lat="9.9454613" lon="-84.1078359"><ele>1097.0</ele><time>2026-04-02T11:44:17.977Z</time></trkpt><trkpt lat="9.9455064" lon="-84.1079365"><ele>1097.0</ele><time>2026-04-02T11:44:18.977Z</time></trkpt><trkpt lat="9.9455612" lon="-84.1080583"><ele>1097.0</ele><time>2026-04-02T11:44:19.977Z</time></trkpt><trkpt lat="9.9456257" lon="-84.1082002"><ele>1097.0</ele><time>2026-04-02T11:44:20.978Z</time></trkpt><trkpt lat="9.9457035" lon="-84.1083492"><ele>1098.6666666666667</ele><time>2026-04-02T11:44:21.977Z</time></trkpt><trkpt lat="9.9457939" lon="-84.108498"><ele>1100.3333333333333</ele><time>2026-04-02T11:44:22.977Z</time></trkpt><trkpt lat="9.9459139" lon="-84.1086505"><ele>1102.0</ele><time>2026-04-02T11:44:23.977Z</time></trkpt><trkpt lat="9.946046" lon="-84.1088018"><ele>1102.3333333333333</ele><time>2026-04-02T11:44:24.977Z</time></trkpt><trkpt lat="9.9462039" lon="-84.1089406"><ele>1102.6666666666667</ele><time>2026-04-02T11:44:25.978Z</time></trkpt><trkpt lat="9.9463803" lon="-84.1090907"><ele>1103.0</ele><time>2026-04-02T11:44:26.978Z</time></trkpt><trkpt lat="9.9465777" lon="-84.1092363"><ele>1102.5</ele><time>2026-04-02T11:44:27.976Z</time></trkpt><trkpt lat="9.9467866" lon="-84.1093834"><ele>1102.0</ele><time>2026-04-02T11:44:28.977Z</time></trkpt><trkpt lat="9.9470037" lon="-84.1095352"><ele>1102.0</ele><time>2026-04-02T11:44:29.977Z</time></trkpt><trkpt lat="9.9472235" lon="-84.1096906"><ele>1102.0</ele><time>2026-04-02T11:44:30.977Z</time></trkpt><trkpt lat="9.9474389" lon="-84.109845"><ele>1099.0</ele><time>2026-04-02T11:44:31.977Z</time></trkpt><trkpt lat="9.9476482" lon="-84.1099873"><ele>1096.0</ele><time>2026-04-02T11:44:32.978Z</time></trkpt><trkpt lat="9.9478431" lon="-84.1101231"><ele>1096.0</ele><time>2026-04-02T11:44:33.975Z</time></trkpt><trkpt lat="9.9480314" lon="-84.1102541"><ele>1096.0</ele><time>2026-04-02T11:44:34.977Z</time></trkpt><trkpt lat="9.9482111" lon="-84.1103794"><ele>1096.0</ele><time>2026-04-02T11:44:35.978Z</time></trkpt><trkpt lat="9.9483848" lon="-84.1105013"><ele>1094.6666666666665</ele><time>2026-04-02T11:44:36.978Z</time></trkpt><trkpt lat="9.9485595" lon="-84.110625"><ele>1093.3333333333333</ele><time>2026-04-02T11:44:37.978Z</time></trkpt><trkpt lat="9.9487418" lon="-84.1107528"><ele>1092.0</ele><time>2026-04-02T11:44:38.978Z</time></trkpt><trkpt lat="9.9489183" lon="-84.1108719"><ele>1091.6666666666667</ele><time>2026-04-02T11:44:39.978Z</time></trkpt><trkpt lat="9.9490886" lon="-84.1109886"><ele>1091.3333333333335</ele><time>2026-04-02T11:44:40.977Z</time></trkpt><trkpt lat="9.949251" lon="-84.1110995"><ele>1091.0</ele><time>2026-04-02T11:44:41.977Z</time></trkpt><trkpt lat="9.9494128" lon="-84.1112105"><ele>1089.6666666666667</ele><time>2026-04-02T11:44:42.978Z</time></trkpt><trkpt lat="9.9495762" lon="-84.1113203"><ele>1088.3333333333333</ele><time>2026-04-02T11:44:43.977Z</time></trkpt><trkpt lat="9.9497425" lon="-84.1114328"><ele>1087.0</ele><time>2026-04-02T11:44:44.977Z</time></trkpt><trkpt lat="9.9499125" lon="-84.1115485"><ele>1085.6666666666665</ele><time>2026-04-02T11:44:45.977Z</time></trkpt><trkpt lat="9.9500855" lon="-84.1116655"><ele>1084.3333333333333</ele><time>2026-04-02T11:44:46.977Z</time></trkpt><trkpt lat="9.950264" lon="-84.1117886"><ele>1083.0</ele><time>2026-04-02T11:44:47.978Z</time></trkpt><trkpt lat="9.9504438" lon="-84.1119114"><ele>1083.0</ele><time>2026-04-02T11:44:48.976Z</time></trkpt><trkpt lat="9.9506185" lon="-84.1120274"><ele>1083.0</ele><time>2026-04-02T11:44:49.977Z</time></trkpt><trkpt lat="9.9507872" lon="-84.1121449"><ele>1083.0</ele><time>2026-04-02T11:44:50.976Z</time></trkpt><trkpt lat="9.9509568" lon="-84.1122627"><ele>1082.0</ele><time>2026-04-02T11:44:51.977Z</time></trkpt><trkpt lat="9.9511338" lon="-84.112385"><ele>1081.0</ele><time>2026-04-02T11:44:52.977Z</time></trkpt><trkpt lat="9.9513186" lon="-84.1125121"><ele>1080.0</ele><time>2026-04-02T11:44:53.977Z</time></trkpt><trkpt lat="9.9515035" lon="-84.112645"><ele>1079.3333333333333</ele><time>2026-04-02T11:44:54.978Z</time></trkpt><trkpt lat="9.9516857" lon="-84.1127722"><ele>1078.6666666666665</ele><time>2026-04-02T11:44:55.977Z</time></trkpt><trkpt lat="9.9518673" lon="-84.1128985"><ele>1078.0</ele><time>2026-04-02T11:44:56.977Z</time></trkpt><trkpt lat="9.9520507" lon="-84.1130245"><ele>1076.5</ele><time>2026-04-02T11:44:57.977Z</time></trkpt><trkpt lat="9.9522381" lon="-84.113159"><ele>1075.0</ele><time>2026-04-02T11:44:58.977Z</time></trkpt><trkpt lat="9.9524321" lon="-84.1132968"><ele>1075.0</ele><time>2026-04-02T11:44:59.975Z</time></trkpt><trkpt lat="9.9526333" lon="-84.1134402"><ele>1075.0</ele><time>2026-04-02T11:45:00.976Z</time></trkpt><trkpt lat="9.9528305" lon="-84.1135752"><ele>1075.0</ele><time>2026-04-02T11:45:01.977Z</time></trkpt><trkpt lat="9.9530245" lon="-84.1137108"><ele>1075.0</ele><time>2026-04-02T11:45:02.977Z</time></trkpt><trkpt lat="9.9532136" lon="-84.1138434"><ele>1075.5</ele><time>2026-04-02T11:45:03.977Z</time></trkpt><trkpt lat="9.9534082" lon="-84.1139776"><ele>1076.0</ele><time>2026-04-02T11:45:04.976Z</time></trkpt><trkpt lat="9.9536059" lon="-84.1141216"><ele>1074.0</ele><time>2026-04-02T11:45:05.977Z</time></trkpt><trkpt lat="9.9538001" lon="-84.1142532"><ele>1072.0</ele><time>2026-04-02T11:45:06.977Z</time></trkpt><trkpt lat="9.9539927" lon="-84.1143909"><ele>1072.0</ele><time>2026-04-02T11:45:07.977Z</time></trkpt><trkpt lat="9.9541909" lon="-84.1145268"><ele>1072.0</ele><time>2026-04-02T11:45:08.977Z</time></trkpt><trkpt lat="9.954399" lon="-84.11467"><ele>1071.5</ele><time>2026-04-02T11:45:09.977Z</time></trkpt><trkpt lat="9.954627" lon="-84.1148171"><ele>1071.0</ele><time>2026-04-02T11:45:10.978Z</time></trkpt><trkpt lat="9.9548685" lon="-84.1149741"><ele>1070.5</ele><time>2026-04-02T11:45:11.977Z</time></trkpt><trkpt lat="9.9551195" lon="-84.1151434"><ele>1070.0</ele><time>2026-04-02T11:45:12.977Z</time></trkpt><trkpt lat="9.9553815" lon="-84.1153211"><ele>1070.0</ele><time>2026-04-02T11:45:13.978Z</time></trkpt><trkpt lat="9.9556443" lon="-84.1155055"><ele>1070.0</ele><time>2026-04-02T11:45:14.977Z</time></trkpt><trkpt lat="9.955914" lon="-84.1156919"><ele>1068.5</ele><time>2026-04-02T11:45:15.978Z</time></trkpt><trkpt lat="9.9561745" lon="-84.1158715"><ele>1067.0</ele><time>2026-04-02T11:45:16.978Z</time></trkpt><trkpt lat="9.9564133" lon="-84.1160547"><ele>1067.0</ele><time>2026-04-02T11:45:17.977Z</time></trkpt><trkpt lat="9.9566423" lon="-84.1162446"><ele>1067.0</ele><time>2026-04-02T11:45:18.977Z</time></trkpt><trkpt lat="9.9568757" lon="-84.1164499"><ele>1065.0</ele><time>2026-04-02T11:45:19.977Z</time></trkpt><trkpt lat="9.9571007" lon="-84.1166663"><ele>1063.0</ele><time>2026-04-02T11:45:20.977Z</time></trkpt><trkpt lat="9.9573193" lon="-84.1168906"><ele>1063.0</ele><time>2026-04-02T11:45:21.977Z</time></trkpt><trkpt lat="9.9575261" lon="-84.1171102"><ele>1063.0</ele><time>2026-04-02T11:45:22.976Z</time></trkpt><trkpt lat="9.9577175" lon="-84.1173253"><ele>1061.5</ele><time>2026-04-02T11:45:23.977Z</time></trkpt><trkpt lat="9.957902" lon="-84.1175414"><ele>1060.0</ele><time>2026-04-02T11:45:24.977Z</time></trkpt><trkpt lat="9.958075" lon="-84.1177624"><ele>1060.0</ele><time>2026-04-02T11:45:25.977Z</time></trkpt><trkpt lat="9.9582352" lon="-84.1179797"><ele>1060.0</ele><time>2026-04-02T11:45:26.976Z</time></trkpt><trkpt lat="9.9583845" lon="-84.1181924"><ele>1059.0</ele><time>2026-04-02T11:45:27.977Z</time></trkpt><trkpt lat="9.9585302" lon="-84.1184133"><ele>1058.0</ele><time>2026-04-02T11:45:28.977Z</time></trkpt><trkpt lat="9.9586718" lon="-84.1186432"><ele>1058.0</ele><time>2026-04-02T11:45:29.978Z</time></trkpt><trkpt lat="9.9588026" lon="-84.1188719"><ele>1058.0</ele><time>2026-04-02T11:45:30.976Z</time></trkpt><trkpt lat="9.9589369" lon="-84.1191024"><ele>1057.5</ele><time>2026-04-02T11:45:31.977Z</time></trkpt><trkpt lat="9.95908" lon="-84.1193447"><ele>1057.0</ele><time>2026-04-02T11:45:32.977Z</time></trkpt><trkpt lat="9.9592324" lon="-84.1195978"><ele>1056.0</ele><time>2026-04-02T11:45:33.978Z</time></trkpt><trkpt lat="9.9593867" lon="-84.119866"><ele>1055.0</ele><time>2026-04-02T11:45:34.977Z</time></trkpt><trkpt lat="9.95954" lon="-84.1201476"><ele>1054.0</ele><time>2026-04-02T11:45:35.977Z</time></trkpt><trkpt lat="9.9596892" lon="-84.120436"><ele>1053.0</ele><time>2026-04-02T11:45:36.977Z</time></trkpt><trkpt lat="9.9598403" lon="-84.1207296"><ele>1052.0</ele><time>2026-04-02T11:45:37.976Z</time></trkpt><trkpt lat="9.959991" lon="-84.1210287"><ele>1051.0</ele><time>2026-04-02T11:45:38.976Z</time></trkpt><trkpt lat="9.9601457" lon="-84.1213295"><ele>1047.0</ele><time>2026-04-02T11:45:39.977Z</time></trkpt><trkpt lat="9.9603082" lon="-84.1216325"><ele>1043.0</ele><time>2026-04-02T11:45:40.977Z</time></trkpt><trkpt lat="9.9604723" lon="-84.1219373"><ele>1043.0</ele><time>2026-04-02T11:45:41.978Z</time></trkpt><trkpt lat="9.9606422" lon="-84.1222476"><ele>1043.0</ele><time>2026-04-02T11:45:42.977Z</time></trkpt><trkpt lat="9.9608156" lon="-84.122564"><ele>1043.5</ele><time>2026-04-02T11:45:43.976Z</time></trkpt><trkpt lat="9.9609864" lon="-84.1228787"><ele>1044.0</ele><time>2026-04-02T11:45:44.977Z</time></trkpt><trkpt lat="9.961144" lon="-84.1231759"><ele>1044.5</ele><time>2026-04-02T11:45:45.977Z</time></trkpt><trkpt lat="9.9612978" lon="-84.1234625"><ele>1045.0</ele><time>2026-04-02T11:45:46.977Z</time></trkpt><trkpt lat="9.9614493" lon="-84.1237425"><ele>1045.0</ele><time>2026-04-02T11:45:47.977Z</time></trkpt><trkpt lat="9.9616022" lon="-84.1240209"><ele>1045.0</ele><time>2026-04-02T11:45:48.977Z</time></trkpt><trkpt lat="9.9617493" lon="-84.1242889"><ele>1044.5</ele><time>2026-04-02T11:45:49.976Z</time></trkpt><trkpt lat="9.9618914" lon="-84.1245473"><ele>1044.0</ele><time>2026-04-02T11:45:50.978Z</time></trkpt><trkpt lat="9.9620325" lon="-84.1248061"><ele>1043.0</ele><time>2026-04-02T11:45:51.978Z</time></trkpt><trkpt lat="9.9621751" lon="-84.125064"><ele>1042.0</ele><time>2026-04-02T11:45:52.977Z</time></trkpt><trkpt lat="9.9623145" lon="-84.125319"><ele>1042.0</ele><time>2026-04-02T11:45:53.978Z</time></trkpt><trkpt lat="9.9624657" lon="-84.1255802"><ele>1042.0</ele><time>2026-04-02T11:45:54.978Z</time></trkpt><trkpt lat="9.962623" lon="-84.1258505"><ele>1040.0</ele><time>2026-04-02T11:45:55.977Z</time></trkpt><trkpt lat="9.962781" lon="-84.1261219"><ele>1038.0</ele><time>2026-04-02T11:45:56.976Z</time></trkpt><trkpt lat="9.9629277" lon="-84.1263921"><ele>1038.5</ele><time>2026-04-02T11:45:57.976Z</time></trkpt><trkpt lat="9.96307" lon="-84.1266553"><ele>1039.0</ele><time>2026-04-02T11:45:58.977Z</time></trkpt><trkpt lat="9.9632074" lon="-84.1269244"><ele>1039.0</ele><time>2026-04-02T11:45:59.978Z</time></trkpt><trkpt lat="9.9633482" lon="-84.1271929"><ele>1039.0</ele><time>2026-04-02T11:46:00.978Z</time></trkpt><trkpt lat="9.9634826" lon="-84.1274374"><ele>1035.5</ele><time>2026-04-02T11:46:01.977Z</time></trkpt><trkpt lat="9.9636146" lon="-84.1276765"><ele>1032.0</ele><time>2026-04-02T11:46:02.977Z</time></trkpt><trkpt lat="9.9637393" lon="-84.1279038"><ele>1032.0</ele><time>2026-04-02T11:46:03.977Z</time></trkpt><trkpt lat="9.963869" lon="-84.1281409"><ele>1032.0</ele><time>2026-04-02T11:46:04.977Z</time></trkpt><trkpt lat="9.9640035" lon="-84.128383"><ele>1033.0</ele><time>2026-04-02T11:46:05.976Z</time></trkpt><trkpt lat="9.9641493" lon="-84.1286364"><ele>1034.0</ele><time>2026-04-02T11:46:06.976Z</time></trkpt><trkpt lat="9.9643038" lon="-84.1288988"><ele>1028.5</ele><time>2026-04-02T11:46:07.978Z</time></trkpt><trkpt lat="9.9644645" lon="-84.1291677"><ele>1023.0</ele><time>2026-04-02T11:46:08.976Z</time></trkpt><trkpt lat="9.9646089" lon="-84.1294325"><ele>1023.0</ele><time>2026-04-02T11:46:09.976Z</time></trkpt><trkpt lat="9.9647502" lon="-84.129694"><ele>1023.0</ele><time>2026-04-02T11:46:10.978Z</time></trkpt><trkpt lat="9.9648908" lon="-84.1299582"><ele>1021.0</ele><time>2026-04-02T11:46:11.977Z</time></trkpt><trkpt lat="9.9650287" lon="-84.1302266"><ele>1019.0</ele><time>2026-04-02T11:46:12.976Z</time></trkpt><trkpt lat="9.9651673" lon="-84.1305001"><ele>1007.0</ele><time>2026-04-02T11:46:13.976Z</time></trkpt><trkpt lat="9.9653109" lon="-84.1307774"><ele>995.0</ele><time>2026-04-02T11:46:14.977Z</time></trkpt><trkpt lat="9.9654598" lon="-84.1310552"><ele>995.0</ele><time>2026-04-02T11:46:15.976Z</time></trkpt><trkpt lat="9.9656145" lon="-84.1313357"><ele>995.0</ele><time>2026-04-02T11:46:16.977Z</time></trkpt><trkpt lat="9.9657632" lon="-84.1316068"><ele>989.5</ele><time>2026-04-02T11:46:17.977Z</time></trkpt><trkpt lat="9.9659044" lon="-84.1318675"><ele>984.0</ele><time>2026-04-02T11:46:18.976Z</time></trkpt><trkpt lat="9.966041" lon="-84.1321211"><ele>984.0</ele><time>2026-04-02T11:46:19.977Z</time></trkpt><trkpt lat="9.9661752" lon="-84.1323709"><ele>984.0</ele><time>2026-04-02T11:46:20.977Z</time></trkpt><trkpt lat="9.9663071" lon="-84.1326275"><ele>989.0</ele><time>2026-04-02T11:46:21.977Z</time></trkpt><trkpt lat="9.9664361" lon="-84.132891"><ele>994.0</ele><time>2026-04-02T11:46:22.977Z</time></trkpt><trkpt lat="9.9665766" lon="-84.1331614"><ele>988.0</ele><time>2026-04-02T11:46:23.977Z</time></trkpt><trkpt lat="9.9667249" lon="-84.133434"><ele>982.0</ele><time>2026-04-02T11:46:24.977Z</time></trkpt><trkpt lat="9.9668787" lon="-84.1337051"><ele>982.0</ele><time>2026-04-02T11:46:25.977Z</time></trkpt><trkpt lat="9.9670309" lon="-84.1339794"><ele>982.0</ele><time>2026-04-02T11:46:26.977Z</time></trkpt><trkpt lat="9.9671759" lon="-84.1342473"><ele>986.5</ele><time>2026-04-02T11:46:27.977Z</time></trkpt><trkpt lat="9.9673156" lon="-84.1345037"><ele>991.0</ele><time>2026-04-02T11:46:28.975Z</time></trkpt><trkpt lat="9.9674452" lon="-84.1347483"><ele>1007.5</ele><time>2026-04-02T11:46:29.977Z</time></trkpt><trkpt lat="9.9675721" lon="-84.1349769"><ele>1024.0</ele><time>2026-04-02T11:46:30.977Z</time></trkpt><trkpt lat="9.9676909" lon="-84.1351988"><ele>1024.0</ele><time>2026-04-02T11:46:31.977Z</time></trkpt><trkpt lat="9.9678124" lon="-84.1354194"><ele>1024.0</ele><time>2026-04-02T11:46:32.975Z</time></trkpt><trkpt lat="9.9679319" lon="-84.1356331"><ele>1023.0</ele><time>2026-04-02T11:46:33.976Z</time></trkpt><trkpt lat="9.968044" lon="-84.135836"><ele>1022.0</ele><time>2026-04-02T11:46:34.977Z</time></trkpt><trkpt lat="9.968159" lon="-84.1360443"><ele>1022.0</ele><time>2026-04-02T11:46:35.977Z</time></trkpt><trkpt lat="9.9682703" lon="-84.1362481"><ele>1022.0</ele><time>2026-04-02T11:46:36.977Z</time></trkpt><trkpt lat="9.9683758" lon="-84.1364426"><ele>1022.0</ele><time>2026-04-02T11:46:37.977Z</time></trkpt><trkpt lat="9.9684846" lon="-84.1366391"><ele>1022.3333333333334</ele><time>2026-04-02T11:46:38.976Z</time></trkpt><trkpt lat="9.9685969" lon="-84.1368425"><ele>1022.6666666666667</ele><time>2026-04-02T11:46:39.977Z</time></trkpt><trkpt lat="9.9687008" lon="-84.1370341"><ele>1023.0</ele><time>2026-04-02T11:46:40.977Z</time></trkpt><trkpt lat="9.9688022" lon="-84.13722"><ele>1022.3333333333333</ele><time>2026-04-02T11:46:41.977Z</time></trkpt><trkpt lat="9.9689013" lon="-84.1373974"><ele>1021.6666666666666</ele><time>2026-04-02T11:46:42.977Z</time></trkpt><trkpt lat="9.9689986" lon="-84.1375751"><ele>1021.0</ele><time>2026-04-02T11:46:43.977Z</time></trkpt><trkpt lat="9.9690994" lon="-84.1377606"><ele>1021.6666666666666</ele><time>2026-04-02T11:46:44.977Z</time></trkpt><trkpt lat="9.9691996" lon="-84.1379477"><ele>1022.3333333333333</ele><time>2026-04-02T11:46:45.977Z</time></trkpt><trkpt lat="9.9693103" lon="-84.1381413"><ele>1023.0</ele><time>2026-04-02T11:46:46.977Z</time></trkpt><trkpt lat="9.9694189" lon="-84.1383315"><ele>1023.0</ele><time>2026-04-02T11:46:47.977Z</time></trkpt><trkpt lat="9.9695348" lon="-84.1385239"><ele>1023.0</ele><time>2026-04-02T11:46:48.976Z</time></trkpt><trkpt lat="9.9696503" lon="-84.1387185"><ele>1023.0</ele><time>2026-04-02T11:46:49.977Z</time></trkpt><trkpt lat="9.9697645" lon="-84.1389107"><ele>1021.0</ele><time>2026-04-02T11:46:50.977Z</time></trkpt><trkpt lat="9.9698808" lon="-84.1391097"><ele>1019.0</ele><time>2026-04-02T11:46:51.976Z</time></trkpt><trkpt lat="9.9700074" lon="-84.13932"><ele>1016.0</ele><time>2026-04-02T11:46:52.977Z</time></trkpt><trkpt lat="9.9701366" lon="-84.1395488"><ele>1013.0</ele><time>2026-04-02T11:46:53.977Z</time></trkpt><trkpt lat="9.9702712" lon="-84.1397838"><ele>1012.5</ele><time>2026-04-02T11:46:54.976Z</time></trkpt><trkpt lat="9.9704089" lon="-84.1400501"><ele>1012.0</ele><time>2026-04-02T11:46:55.976Z</time></trkpt><trkpt lat="9.9705458" lon="-84.1403259"><ele>1012.0</ele><time>2026-04-02T11:46:56.976Z</time></trkpt><trkpt lat="9.9706786" lon="-84.1406128"><ele>1012.0</ele><time>2026-04-02T11:46:57.978Z</time></trkpt><trkpt lat="9.9708105" lon="-84.1409045"><ele>1004.0</ele><time>2026-04-02T11:46:58.978Z</time></trkpt><trkpt lat="9.9709347" lon="-84.1411852"><ele>996.0</ele><time>2026-04-02T11:46:59.977Z</time></trkpt><trkpt lat="9.9710499" lon="-84.1414619"><ele>995.5</ele><time>2026-04-02T11:47:00.976Z</time></trkpt><trkpt lat="9.9711572" lon="-84.1417263"><ele>995.0</ele><time>2026-04-02T11:47:01.976Z</time></trkpt><trkpt lat="9.9712545" lon="-84.1419953"><ele>995.0</ele><time>2026-04-02T11:47:02.977Z</time></trkpt><trkpt lat="9.9713575" lon="-84.1422766"><ele>995.0</ele><time>2026-04-02T11:47:03.977Z</time></trkpt><trkpt lat="9.9714624" lon="-84.142563"><ele>993.0</ele><time>2026-04-02T11:47:04.976Z</time></trkpt><trkpt lat="9.9715734" lon="-84.1428528"><ele>991.0</ele><time>2026-04-02T11:47:05.977Z</time></trkpt><trkpt lat="9.9716791" lon="-84.1431313"><ele>991.0</ele><time>2026-04-02T11:47:06.978Z</time></trkpt><trkpt lat="9.9717835" lon="-84.1434096"><ele>991.0</ele><time>2026-04-02T11:47:07.977Z</time></trkpt><trkpt lat="9.9718894" lon="-84.1437025"><ele>991.0</ele><time>2026-04-02T11:47:08.976Z</time></trkpt><trkpt lat="9.9719972" lon="-84.1440115"><ele>991.0</ele><time>2026-04-02T11:47:09.977Z</time></trkpt><trkpt lat="9.9721076" lon="-84.1443381"><ele>992.5</ele><time>2026-04-02T11:47:10.977Z</time></trkpt><trkpt lat="9.9722264" lon="-84.1446694"><ele>994.0</ele><time>2026-04-02T11:47:11.977Z</time></trkpt><trkpt lat="9.9723544" lon="-84.1450008"><ele>994.0</ele><time>2026-04-02T11:47:12.977Z</time></trkpt><trkpt lat="9.9724788" lon="-84.1453343"><ele>994.0</ele><time>2026-04-02T11:47:13.977Z</time></trkpt><trkpt lat="9.9725983" lon="-84.1456544"><ele>996.5</ele><time>2026-04-02T11:47:14.976Z</time></trkpt><trkpt lat="9.9727101" lon="-84.1459569"><ele>999.0</ele><time>2026-04-02T11:47:15.978Z</time></trkpt><trkpt lat="9.9728161" lon="-84.1462479"><ele>999.0</ele><time>2026-04-02T11:47:16.977Z</time></trkpt><trkpt lat="9.9729186" lon="-84.146541"><ele>999.0</ele><time>2026-04-02T11:47:17.977Z</time></trkpt><trkpt lat="9.9730212" lon="-84.1468412"><ele>998.5</ele><time>2026-04-02T11:47:18.975Z</time></trkpt><trkpt lat="9.9731292" lon="-84.1471439"><ele>998.0</ele><time>2026-04-02T11:47:19.976Z</time></trkpt><trkpt lat="9.9732429" lon="-84.1474505"><ele>997.5</ele><time>2026-04-02T11:47:20.978Z</time></trkpt><trkpt lat="9.9733611" lon="-84.147762"><ele>997.0</ele><time>2026-04-02T11:47:21.976Z</time></trkpt><trkpt lat="9.9734819" lon="-84.1480815"><ele>994.5</ele><time>2026-04-02T11:47:22.978Z</time></trkpt><trkpt lat="9.9736047" lon="-84.1484083"><ele>992.0</ele><time>2026-04-02T11:47:23.977Z</time></trkpt><trkpt lat="9.97373" lon="-84.14874"><ele>990.0</ele><time>2026-04-02T11:47:24.977Z</time></trkpt><trkpt lat="9.9738635" lon="-84.1490693"><ele>988.0</ele><time>2026-04-02T11:47:25.977Z</time></trkpt><trkpt lat="9.9739904" lon="-84.1493916"><ele>988.0</ele><time>2026-04-02T11:47:26.977Z</time></trkpt><trkpt lat="9.9741155" lon="-84.1496973"><ele>988.0</ele><time>2026-04-02T11:47:27.977Z</time></trkpt><trkpt lat="9.9742443" lon="-84.149986"><ele>986.0</ele><time>2026-04-02T11:47:28.976Z</time></trkpt><trkpt lat="9.9743795" lon="-84.1502788"><ele>984.0</ele><time>2026-04-02T11:47:29.977Z</time></trkpt><trkpt lat="9.9745183" lon="-84.1505731"><ele>983.0</ele><time>2026-04-02T11:47:30.977Z</time></trkpt><trkpt lat="9.974669" lon="-84.1508745"><ele>982.0</ele><time>2026-04-02T11:47:31.977Z</time></trkpt><trkpt lat="9.9748279" lon="-84.1511802"><ele>982.0</ele><time>2026-04-02T11:47:32.977Z</time></trkpt><trkpt lat="9.9749953" lon="-84.1514866"><ele>982.0</ele><time>2026-04-02T11:47:33.977Z</time></trkpt><trkpt lat="9.9751658" lon="-84.1518013"><ele>983.0</ele><time>2026-04-02T11:47:34.977Z</time></trkpt><trkpt lat="9.9753436" lon="-84.1521267"><ele>984.0</ele><time>2026-04-02T11:47:35.977Z</time></trkpt><trkpt lat="9.975525" lon="-84.1524611"><ele>984.0</ele><time>2026-04-02T11:47:36.975Z</time></trkpt><trkpt lat="9.9757121" lon="-84.1528072"><ele>984.0</ele><time>2026-04-02T11:47:37.977Z</time></trkpt><trkpt lat="9.975899" lon="-84.1531566"><ele>984.0</ele><time>2026-04-02T11:47:38.976Z</time></trkpt><trkpt lat="9.9760835" lon="-84.1534873"><ele>984.0</ele><time>2026-04-02T11:47:39.978Z</time></trkpt><trkpt lat="9.9762543" lon="-84.1538042"><ele>983.5</ele><time>2026-04-02T11:47:40.978Z</time></trkpt><trkpt lat="9.9764181" lon="-84.1541039"><ele>983.0</ele><time>2026-04-02T11:47:41.976Z</time></trkpt><trkpt lat="9.9765721" lon="-84.1543846"><ele>986.0</ele><time>2026-04-02T11:47:42.978Z</time></trkpt><trkpt lat="9.9767214" lon="-84.1546546"><ele>989.0</ele><time>2026-04-02T11:47:43.976Z</time></trkpt><trkpt lat="9.9768663" lon="-84.1549194"><ele>989.0</ele><time>2026-04-02T11:47:44.976Z</time></trkpt><trkpt lat="9.9770056" lon="-84.1551784"><ele>989.0</ele><time>2026-04-02T11:47:45.976Z</time></trkpt><trkpt lat="9.9771398" lon="-84.1554252"><ele>989.0</ele><time>2026-04-02T11:47:46.977Z</time></trkpt><trkpt lat="9.9772677" lon="-84.1556569"><ele>989.0</ele><time>2026-04-02T11:47:47.976Z</time></trkpt><trkpt lat="9.9773971" lon="-84.1558766"><ele>991.5</ele><time>2026-04-02T11:47:48.977Z</time></trkpt><trkpt lat="9.9775222" lon="-84.1560876"><ele>994.0</ele><time>2026-04-02T11:47:49.977Z</time></trkpt><trkpt lat="9.9776356" lon="-84.1562897"><ele>994.0</ele><time>2026-04-02T11:47:50.977Z</time></trkpt><trkpt lat="9.9777475" lon="-84.1564822"><ele>994.0</ele><time>2026-04-02T11:47:51.977Z</time></trkpt><trkpt lat="9.9778554" lon="-84.1566831"><ele>994.0</ele><time>2026-04-02T11:47:52.977Z</time></trkpt><trkpt lat="9.9779651" lon="-84.1568888"><ele>992.0</ele><time>2026-04-02T11:47:53.978Z</time></trkpt><trkpt lat="9.9780793" lon="-84.1570976"><ele>990.0</ele><time>2026-04-02T11:47:54.977Z</time></trkpt><trkpt lat="9.9781842" lon="-84.1572942"><ele>990.3333333333333</ele><time>2026-04-02T11:47:55.976Z</time></trkpt><trkpt lat="9.9782881" lon="-84.1574862"><ele>990.6666666666666</ele><time>2026-04-02T11:47:56.975Z</time></trkpt><trkpt lat="9.9783948" lon="-84.1576856"><ele>991.0</ele><time>2026-04-02T11:47:57.976Z</time></trkpt><trkpt lat="9.9785057" lon="-84.1578898"><ele>991.0</ele><time>2026-04-02T11:47:58.977Z</time></trkpt><trkpt lat="9.9786194" lon="-84.1580964"><ele>991.0</ele><time>2026-04-02T11:47:59.978Z</time></trkpt><trkpt lat="9.978729" lon="-84.1582901"><ele>989.3333333333333</ele><time>2026-04-02T11:48:00.977Z</time></trkpt><trkpt lat="9.9788409" lon="-84.1584761"><ele>987.6666666666667</ele><time>2026-04-02T11:48:01.976Z</time></trkpt><trkpt lat="9.9789375" lon="-84.1586535"><ele>986.0</ele><time>2026-04-02T11:48:02.977Z</time></trkpt><trkpt lat="9.9790341" lon="-84.1588347"><ele>986.0</ele><time>2026-04-02T11:48:03.977Z</time></trkpt><trkpt lat="9.9791384" lon="-84.159018"><ele>986.0</ele><time>2026-04-02T11:48:04.976Z</time></trkpt><trkpt lat="9.9792395" lon="-84.1592047"><ele>986.0</ele><time>2026-04-02T11:48:05.977Z</time></trkpt><trkpt lat="9.979335" lon="-84.1593805"><ele>987.3333333333334</ele><time>2026-04-02T11:48:06.977Z</time></trkpt><trkpt lat="9.9794253" lon="-84.159544"><ele>988.6666666666667</ele><time>2026-04-02T11:48:07.977Z</time></trkpt><trkpt lat="9.9795178" lon="-84.1596897"><ele>990.0</ele><time>2026-04-02T11:48:08.977Z</time></trkpt><trkpt lat="9.9796095" lon="-84.1598372"><ele>990.6666666666667</ele><time>2026-04-02T11:48:09.977Z</time></trkpt><trkpt lat="9.9796882" lon="-84.1599774"><ele>991.3333333333334</ele><time>2026-04-02T11:48:10.977Z</time></trkpt><trkpt lat="9.9797723" lon="-84.1601135"><ele>992.0</ele><time>2026-04-02T11:48:11.975Z</time></trkpt><trkpt lat="9.9798587" lon="-84.1602455"><ele>992.0</ele><time>2026-04-02T11:48:12.977Z</time></trkpt><trkpt lat="9.9799401" lon="-84.1603597"><ele>992.0</ele><time>2026-04-02T11:48:13.977Z</time></trkpt><trkpt lat="9.9800201" lon="-84.1604706"><ele>992.0</ele><time>2026-04-02T11:48:14.977Z</time></trkpt><trkpt lat="9.9800975" lon="-84.1605776"><ele>992.0</ele><time>2026-04-02T11:48:15.976Z</time></trkpt><trkpt lat="9.9801765" lon="-84.1606816"><ele>993.0</ele><time>2026-04-02T11:48:16.976Z</time></trkpt><trkpt lat="9.9802531" lon="-84.1607784"><ele>994.0</ele><time>2026-04-02T11:48:17.976Z</time></trkpt><trkpt lat="9.9803209" lon="-84.1608645"><ele>995.0</ele><time>2026-04-02T11:48:18.976Z</time></trkpt><trkpt lat="9.980385" lon="-84.1609423"><ele>996.0</ele><time>2026-04-02T11:48:19.976Z</time></trkpt><trkpt lat="9.9804544" lon="-84.1610106"><ele>997.0</ele><time>2026-04-02T11:48:20.977Z</time></trkpt><trkpt lat="9.9805226" lon="-84.1610653"><ele>996.9999999999999</ele><time>2026-04-02T11:48:21.978Z</time></trkpt><trkpt lat="9.9805982" lon="-84.1611004"><ele>997.0</ele><time>2026-04-02T11:48:22.976Z</time></trkpt><trkpt lat="9.9806729" lon="-84.1611348"><ele>997.0</ele><time>2026-04-02T11:48:23.977Z</time></trkpt><trkpt lat="9.9807567" lon="-84.1611631"><ele>997.0</ele><time>2026-04-02T11:48:24.977Z</time></trkpt><trkpt lat="9.9808421" lon="-84.1611939"><ele>996.9999999999999</ele><time>2026-04-02T11:48:25.977Z</time></trkpt><trkpt lat="9.9809161" lon="-84.1612213"><ele>997.0</ele><time>2026-04-02T11:48:26.977Z</time></trkpt><trkpt lat="9.9809762" lon="-84.1612479"><ele>998.2</ele><time>2026-04-02T11:48:27.977Z</time></trkpt><trkpt lat="9.9810655" lon="-84.1612893"><ele>999.4000000000001</ele><time>2026-04-02T11:48:29.976Z</time></trkpt><trkpt lat="9.9811278" lon="-84.1613253"><ele>1000.5999999999999</ele><time>2026-04-02T11:48:32.977Z</time></trkpt><trkpt lat="9.9812061" lon="-84.1613669"><ele>1001.8</ele><time>2026-04-02T11:49:23.977Z</time></trkpt><trkpt lat="9.9812793" lon="-84.1614306"><ele>1003.0</ele><time>2026-04-02T11:49:25.977Z</time></trkpt><trkpt lat="9.9813031" lon="-84.1615276"><ele>1002.8333333333333</ele><time>2026-04-02T11:49:27.976Z</time></trkpt><trkpt lat="9.9812898" lon="-84.1615955"><ele>1002.6666666666666</ele><time>2026-04-02T11:49:28.978Z</time></trkpt><trkpt lat="9.9812598" lon="-84.1616696"><ele>1002.5</ele><time>2026-04-02T11:49:29.976Z</time></trkpt><trkpt lat="9.9812222" lon="-84.1617462"><ele>1002.3333333333333</ele><time>2026-04-02T11:49:30.977Z</time></trkpt><trkpt lat="9.9811793" lon="-84.1618317"><ele>1002.1666666666666</ele><time>2026-04-02T11:49:31.977Z</time></trkpt><trkpt lat="9.9811346" lon="-84.1619297"><ele>1002.0</ele><time>2026-04-02T11:49:32.977Z</time></trkpt><trkpt lat="9.9810885" lon="-84.1620391"><ele>1002.0</ele><time>2026-04-02T11:49:33.977Z</time></trkpt><trkpt lat="9.9810404" lon="-84.1621557"><ele>1002.0</ele><time>2026-04-02T11:49:34.976Z</time></trkpt><trkpt lat="9.9809843" lon="-84.1622808"><ele>1002.0</ele><time>2026-04-02T11:49:35.977Z</time></trkpt><trkpt lat="9.9809327" lon="-84.1624154"><ele>1002.0</ele><time>2026-04-02T11:49:36.977Z</time></trkpt><trkpt lat="9.9808861" lon="-84.1625435"><ele>1000.0</ele><time>2026-04-02T11:49:37.976Z</time></trkpt><trkpt lat="9.9808392" lon="-84.1626671"><ele>998.0</ele><time>2026-04-02T11:49:38.978Z</time></trkpt><trkpt lat="9.9807945" lon="-84.1627883"><ele>996.0</ele><time>2026-04-02T11:49:39.976Z</time></trkpt><trkpt lat="9.9807486" lon="-84.162909"><ele>994.0</ele><time>2026-04-02T11:49:40.976Z</time></trkpt><trkpt lat="9.9807069" lon="-84.1630255"><ele>994.0</ele><time>2026-04-02T11:49:41.976Z</time></trkpt><trkpt lat="9.980667" lon="-84.1631438"><ele>994.0</ele><time>2026-04-02T11:49:42.976Z</time></trkpt><trkpt lat="9.9806269" lon="-84.1632647"><ele>994.0</ele><time>2026-04-02T11:49:43.976Z</time></trkpt><trkpt lat="9.9805861" lon="-84.1633788"><ele>994.0</ele><time>2026-04-02T11:49:44.976Z</time></trkpt><trkpt lat="9.9805513" lon="-84.1634878"><ele>993.6666666666666</ele><time>2026-04-02T11:49:45.976Z</time></trkpt><trkpt lat="9.9805204" lon="-84.163591"><ele>993.3333333333333</ele><time>2026-04-02T11:49:46.976Z</time></trkpt><trkpt lat="9.9804885" lon="-84.1636843"><ele>993.0</ele><time>2026-04-02T11:49:47.977Z</time></trkpt><trkpt lat="9.9804599" lon="-84.1637682"><ele>992.6666666666667</ele><time>2026-04-02T11:49:48.977Z</time></trkpt><trkpt lat="9.9804313" lon="-84.1638426"><ele>992.3333333333334</ele><time>2026-04-02T11:49:49.976Z</time></trkpt><trkpt lat="9.9804147" lon="-84.1639061"><ele>992.0</ele><time>2026-04-02T11:49:50.977Z</time></trkpt><trkpt lat="9.9803825" lon="-84.1639959"><ele>992.2</ele><time>2026-04-02T11:49:52.977Z</time></trkpt><trkpt lat="9.980354" lon="-84.1640832"><ele>992.4000000000001</ele><time>2026-04-02T11:50:25.977Z</time></trkpt><trkpt lat="9.9803245" lon="-84.164154"><ele>992.5999999999999</ele><time>2026-04-02T11:50:26.976Z</time></trkpt><trkpt lat="9.9802901" lon="-84.1642316"><ele>992.8</ele><time>2026-04-02T11:50:27.978Z</time></trkpt><trkpt lat="9.9802553" lon="-84.1643261"><ele>993.0</ele><time>2026-04-02T11:50:28.977Z</time></trkpt><trkpt lat="9.9802173" lon="-84.1644303"><ele>993.0</ele><time>2026-04-02T11:50:29.975Z</time></trkpt><trkpt lat="9.9801751" lon="-84.164554"><ele>993.0</ele><time>2026-04-02T11:50:30.975Z</time></trkpt><trkpt lat="9.9801237" lon="-84.1646893"><ele>993.0</ele><time>2026-04-02T11:50:31.975Z</time></trkpt><trkpt lat="9.9800814" lon="-84.1648408"><ele>993.0</ele><time>2026-04-02T11:50:32.977Z</time></trkpt><trkpt lat="9.9800279" lon="-84.1650024"><ele>993.6666666666667</ele><time>2026-04-02T11:50:33.976Z</time></trkpt><trkpt lat="9.9799785" lon="-84.1651698"><ele>994.3333333333334</ele><time>2026-04-02T11:50:34.977Z</time></trkpt><trkpt lat="9.9799324" lon="-84.1653376"><ele>995.0</ele><time>2026-04-02T11:50:35.976Z</time></trkpt><trkpt lat="9.979897" lon="-84.1655021"><ele>995.0</ele><time>2026-04-02T11:50:36.977Z</time></trkpt><trkpt lat="9.9798703" lon="-84.1656815"><ele>995.0</ele><time>2026-04-02T11:50:37.976Z</time></trkpt><trkpt lat="9.9798428" lon="-84.1658693"><ele>995.0</ele><time>2026-04-02T11:50:38.977Z</time></trkpt><trkpt lat="9.9798176" lon="-84.1660528"><ele>993.0</ele><time>2026-04-02T11:50:39.976Z</time></trkpt><trkpt lat="9.9797926" lon="-84.1662352"><ele>991.0</ele><time>2026-04-02T11:50:40.977Z</time></trkpt><trkpt lat="9.9797707" lon="-84.1664112"><ele>989.0</ele><time>2026-04-02T11:50:41.976Z</time></trkpt><trkpt lat="9.9797507" lon="-84.1665759"><ele>988.25</ele><time>2026-04-02T11:50:42.976Z</time></trkpt><trkpt lat="9.9797328" lon="-84.166735"><ele>987.5</ele><time>2026-04-02T11:50:43.977Z</time></trkpt><trkpt lat="9.9797181" lon="-84.1668841"><ele>986.75</ele><time>2026-04-02T11:50:44.976Z</time></trkpt><trkpt lat="9.9797109" lon="-84.1670237"><ele>986.0</ele><time>2026-04-02T11:50:45.976Z</time></trkpt><trkpt lat="9.9797102" lon="-84.1671578"><ele>986.0</ele><time>2026-04-02T11:50:46.977Z</time></trkpt><trkpt lat="9.9797114" lon="-84.1672854"><ele>986.0</ele><time>2026-04-02T11:50:47.976Z</time></trkpt><trkpt lat="9.9797114" lon="-84.1674071"><ele>986.0</ele><time>2026-04-02T11:50:48.975Z</time></trkpt><trkpt lat="9.9797099" lon="-84.1675144"><ele>986.0</ele><time>2026-04-02T11:50:49.977Z</time></trkpt><trkpt lat="9.9797055" lon="-84.1676168"><ele>985.6666666666667</ele><time>2026-04-02T11:50:50.977Z</time></trkpt><trkpt lat="9.9797086" lon="-84.1677049"><ele>985.3333333333334</ele><time>2026-04-02T11:50:51.977Z</time></trkpt><trkpt lat="9.9797198" lon="-84.1677701"><ele>985.0</ele><time>2026-04-02T11:50:52.975Z</time></trkpt><trkpt lat="9.9797982" lon="-84.1678715"><ele>984.6666666666667</ele><time>2026-04-02T11:50:54.977Z</time></trkpt><trkpt lat="9.9798693" lon="-84.167898"><ele>984.3333333333334</ele><time>2026-04-02T11:50:55.976Z</time></trkpt><trkpt lat="9.9799524" lon="-84.1679142"><ele>984.0</ele><time>2026-04-02T11:50:56.977Z</time></trkpt><trkpt lat="9.9800635" lon="-84.1679282"><ele>983.75</ele><time>2026-04-02T11:50:57.976Z</time></trkpt><trkpt lat="9.9801799" lon="-84.1679421"><ele>983.5</ele><time>2026-04-02T11:50:58.976Z</time></trkpt><trkpt lat="9.9803047" lon="-84.1679616"><ele>983.25</ele><time>2026-04-02T11:50:59.977Z</time></trkpt><trkpt lat="9.9804295" lon="-84.1679749"><ele>983.0</ele><time>2026-04-02T11:51:00.976Z</time></trkpt><trkpt lat="9.9805475" lon="-84.1679919"><ele>983.0</ele><time>2026-04-02T11:51:01.976Z</time></trkpt><trkpt lat="9.9806697" lon="-84.1680111"><ele>983.0</ele><time>2026-04-02T11:51:02.977Z</time></trkpt><trkpt lat="9.980795" lon="-84.1680296"><ele>983.0</ele><time>2026-04-02T11:51:03.976Z</time></trkpt><trkpt lat="9.9809159" lon="-84.1680496"><ele>983.0</ele><time>2026-04-02T11:51:04.976Z</time></trkpt><trkpt lat="9.9810341" lon="-84.168066"><ele>982.75</ele><time>2026-04-02T11:51:05.976Z</time></trkpt><trkpt lat="9.9811479" lon="-84.1680843"><ele>982.5</ele><time>2026-04-02T11:51:06.977Z</time></trkpt><trkpt lat="9.9812674" lon="-84.1680985"><ele>982.25</ele><time>2026-04-02T11:51:07.977Z</time></trkpt><trkpt lat="9.9813907" lon="-84.1681173"><ele>982.0</ele><time>2026-04-02T11:51:08.976Z</time></trkpt><trkpt lat="9.9815199" lon="-84.1681389"><ele>982.0</ele><time>2026-04-02T11:51:09.978Z</time></trkpt><trkpt lat="9.9816554" lon="-84.1681636"><ele>982.0</ele><time>2026-04-02T11:51:10.976Z</time></trkpt><trkpt lat="9.981808" lon="-84.1681981"><ele>982.0</ele><time>2026-04-02T11:51:11.977Z</time></trkpt><trkpt lat="9.9819791" lon="-84.1682292"><ele>981.3333333333333</ele><time>2026-04-02T11:51:12.976Z</time></trkpt><trkpt lat="9.9821597" lon="-84.1682568"><ele>980.6666666666667</ele><time>2026-04-02T11:51:13.975Z</time></trkpt><trkpt lat="9.982349" lon="-84.1682832"><ele>980.0</ele><time>2026-04-02T11:51:14.977Z</time></trkpt><trkpt lat="9.9825512" lon="-84.1683099"><ele>980.0</ele><time>2026-04-02T11:51:15.977Z</time></trkpt><trkpt lat="9.9827624" lon="-84.1683349"><ele>980.0</ele><time>2026-04-02T11:51:16.977Z</time></trkpt><trkpt lat="9.9829661" lon="-84.1683579"><ele>980.0</ele><time>2026-04-02T11:51:17.976Z</time></trkpt><trkpt lat="9.983157" lon="-84.1683828"><ele>980.0</ele><time>2026-04-02T11:51:18.977Z</time></trkpt><trkpt lat="9.9833474" lon="-84.1684108"><ele>980.0</ele><time>2026-04-02T11:51:19.976Z</time></trkpt><trkpt lat="9.9835219" lon="-84.1684347"><ele>980.0</ele><time>2026-04-02T11:51:20.977Z</time></trkpt><trkpt lat="9.9836896" lon="-84.1684597"><ele>980.0</ele><time>2026-04-02T11:51:21.976Z</time></trkpt><trkpt lat="9.9838427" lon="-84.1684807"><ele>980.0</ele><time>2026-04-02T11:51:22.977Z</time></trkpt><trkpt lat="9.9839831" lon="-84.1684991"><ele>980.0</ele><time>2026-04-02T11:51:23.977Z</time></trkpt><trkpt lat="9.9841139" lon="-84.168516"><ele>980.0</ele><time>2026-04-02T11:51:24.976Z</time></trkpt><trkpt lat="9.9842555" lon="-84.1685412"><ele>978.0</ele><time>2026-04-02T11:51:25.976Z</time></trkpt><trkpt lat="9.9844093" lon="-84.1685651"><ele>976.0</ele><time>2026-04-02T11:51:26.976Z</time></trkpt><trkpt lat="9.9845696" lon="-84.1685877"><ele>974.0</ele><time>2026-04-02T11:51:27.976Z</time></trkpt><trkpt lat="9.9847369" lon="-84.1686174"><ele>974.0</ele><time>2026-04-02T11:51:28.978Z</time></trkpt><trkpt lat="9.9849023" lon="-84.168645"><ele>974.0</ele><time>2026-04-02T11:51:29.976Z</time></trkpt><trkpt lat="9.9850649" lon="-84.1686738"><ele>974.0</ele><time>2026-04-02T11:51:30.975Z</time></trkpt><trkpt lat="9.9852204" lon="-84.168698"><ele>972.0</ele><time>2026-04-02T11:51:31.976Z</time></trkpt><trkpt lat="9.9853723" lon="-84.1687222"><ele>970.0</ele><time>2026-04-02T11:51:32.976Z</time></trkpt><trkpt lat="9.9855306" lon="-84.168748"><ele>968.0</ele><time>2026-04-02T11:51:33.976Z</time></trkpt><trkpt lat="9.9857002" lon="-84.1687748"><ele>966.3333333333334</ele><time>2026-04-02T11:51:34.977Z</time></trkpt><trkpt lat="9.9858766" lon="-84.1687985"><ele>964.6666666666667</ele><time>2026-04-02T11:51:35.975Z</time></trkpt><trkpt lat="9.986066" lon="-84.1688307"><ele>963.0</ele><time>2026-04-02T11:51:36.976Z</time></trkpt><trkpt lat="9.9862522" lon="-84.168859"><ele>963.0</ele><time>2026-04-02T11:51:37.977Z</time></trkpt><trkpt lat="9.986432" lon="-84.1688823"><ele>963.0</ele><time>2026-04-02T11:51:38.976Z</time></trkpt><trkpt lat="9.9866093" lon="-84.1689091"><ele>963.0</ele><time>2026-04-02T11:51:39.976Z</time></trkpt><trkpt lat="9.9867773" lon="-84.1689346"><ele>962.3333333333333</ele><time>2026-04-02T11:51:40.977Z</time></trkpt><trkpt lat="9.9869521" lon="-84.1689626"><ele>961.6666666666666</ele><time>2026-04-02T11:51:41.975Z</time></trkpt><trkpt lat="9.9871285" lon="-84.1689889"><ele>961.0</ele><time>2026-04-02T11:51:42.975Z</time></trkpt><trkpt lat="9.98731" lon="-84.1690207"><ele>961.0</ele><time>2026-04-02T11:51:43.976Z</time></trkpt><trkpt lat="9.9874967" lon="-84.169052"><ele>961.0</ele><time>2026-04-02T11:51:44.976Z</time></trkpt><trkpt lat="9.9876846" lon="-84.1690863"><ele>961.0</ele><time>2026-04-02T11:51:45.977Z</time></trkpt><trkpt lat="9.9878897" lon="-84.1691214"><ele>961.0</ele><time>2026-04-02T11:51:46.976Z</time></trkpt><trkpt lat="9.988091" lon="-84.1691595"><ele>961.0</ele><time>2026-04-02T11:51:47.977Z</time></trkpt><trkpt lat="9.9883127" lon="-84.169218"><ele>961.0</ele><time>2026-04-02T11:51:48.977Z</time></trkpt><trkpt lat="9.9885232" lon="-84.1692815"><ele>964.3333333333333</ele><time>2026-04-02T11:51:49.977Z</time></trkpt><trkpt lat="9.9887443" lon="-84.1693423"><ele>967.6666666666667</ele><time>2026-04-02T11:51:50.976Z</time></trkpt><trkpt lat="9.9889586" lon="-84.1693947"><ele>971.0</ele><time>2026-04-02T11:51:51.977Z</time></trkpt><trkpt lat="9.9891634" lon="-84.1694497"><ele>973.3333333333334</ele><time>2026-04-02T11:51:52.976Z</time></trkpt><trkpt lat="9.989349" lon="-84.1695082"><ele>975.6666666666667</ele><time>2026-04-02T11:51:53.977Z</time></trkpt><trkpt lat="9.9895203" lon="-84.1695497"><ele>978.0</ele><time>2026-04-02T11:51:54.977Z</time></trkpt><trkpt lat="9.9896837" lon="-84.1695914"><ele>978.0</ele><time>2026-04-02T11:51:55.976Z</time></trkpt><trkpt lat="9.9898328" lon="-84.1696296"><ele>978.0</ele><time>2026-04-02T11:51:56.976Z</time></trkpt><trkpt lat="9.9899633" lon="-84.1696623"><ele>978.0</ele><time>2026-04-02T11:51:57.976Z</time></trkpt><trkpt lat="9.9900893" lon="-84.169687"><ele>978.0</ele><time>2026-04-02T11:51:58.976Z</time></trkpt><trkpt lat="9.9901995" lon="-84.1697131"><ele>979.1666666666666</ele><time>2026-04-02T11:51:59.978Z</time></trkpt><trkpt lat="9.9902864" lon="-84.1697346"><ele>980.3333333333333</ele><time>2026-04-02T11:52:00.977Z</time></trkpt><trkpt lat="9.9903519" lon="-84.1697567"><ele>981.5</ele><time>2026-04-02T11:52:01.977Z</time></trkpt><trkpt lat="9.9904215" lon="-84.1697809"><ele>982.6666666666666</ele><time>2026-04-02T11:52:03.976Z</time></trkpt><trkpt lat="9.9904871" lon="-84.1697887"><ele>983.8333333333333</ele><time>2026-04-02T11:52:08.976Z</time></trkpt><trkpt lat="9.990563" lon="-84.1698177"><ele>985.0</ele><time>2026-04-02T11:52:11.976Z</time></trkpt><trkpt lat="9.9905906" lon="-84.1699228"><ele>984.9999999999999</ele><time>2026-04-02T11:52:17.976Z</time></trkpt><trkpt lat="9.9905558" lon="-84.1700544"><ele>985.0</ele><time>2026-04-02T11:52:19.977Z</time></trkpt><trkpt lat="9.9905289" lon="-84.1701313"><ele>985.0</ele><time>2026-04-02T11:52:20.976Z</time></trkpt><trkpt lat="9.9905031" lon="-84.1702062"><ele>985.0</ele><time>2026-04-02T11:52:21.976Z</time></trkpt><trkpt lat="9.9904823" lon="-84.1702688"><ele>984.9999999999999</ele><time>2026-04-02T11:52:22.978Z</time></trkpt><trkpt lat="9.9904609" lon="-84.1703365"><ele>985.0</ele><time>2026-04-02T11:52:23.977Z</time></trkpt><trkpt lat="9.990455" lon="-84.1704379"><ele>985.0</ele><time>2026-04-02T11:52:25.976Z</time></trkpt><trkpt lat="9.990515" lon="-84.1705087"><ele>985.0</ele><time>2026-04-02T11:52:27.975Z</time></trkpt><trkpt lat="9.990628" lon="-84.1705609"><ele>985.0</ele><time>2026-04-02T11:52:29.976Z</time></trkpt><trkpt lat="9.9907011" lon="-84.170599"><ele>985.0</ele><time>2026-04-02T11:52:30.977Z</time></trkpt><trkpt lat="9.9907841" lon="-84.1706429"><ele>985.0</ele><time>2026-04-02T11:52:31.976Z</time></trkpt><trkpt lat="9.9908671" lon="-84.1706892"><ele>984.9999999999999</ele><time>2026-04-02T11:52:32.976Z</time></trkpt><trkpt lat="9.990944" lon="-84.1707368"><ele>985.0</ele><time>2026-04-02T11:52:33.977Z</time></trkpt><trkpt lat="9.9910129" lon="-84.1707735"><ele>985.0</ele><time>2026-04-02T11:52:34.976Z</time></trkpt><trkpt lat="9.9910773" lon="-84.1708068"><ele>985.0</ele><time>2026-04-02T11:52:35.976Z</time></trkpt><trkpt lat="9.9911441" lon="-84.1708435"><ele>984.9999999999999</ele><time>2026-04-02T11:52:36.975Z</time></trkpt><trkpt lat="9.9912187" lon="-84.1708831"><ele>985.0</ele><time>2026-04-02T11:52:37.977Z</time></trkpt><trkpt lat="9.9912842" lon="-84.1709195"><ele>984.9999999999999</ele><time>2026-04-02T11:52:38.977Z</time></trkpt><trkpt lat="9.9913886" lon="-84.1709654"><ele>985.0</ele><time>2026-04-02T11:52:40.977Z</time></trkpt><trkpt lat="9.991463" lon="-84.170915"><ele>985.0</ele><time>2026-04-02T11:52:42.975Z</time></trkpt><trkpt lat="9.9914953" lon="-84.1708506"><ele>985.0</ele><time>2026-04-02T11:52:43.976Z</time></trkpt><trkpt lat="9.9915262" lon="-84.1707874"><ele>984.9999999999999</ele><time>2026-04-02T11:52:44.976Z</time></trkpt><trkpt lat="9.9915598" lon="-84.1707103"><ele>985.0</ele><time>2026-04-02T11:52:45.976Z</time></trkpt><trkpt lat="9.9915898" lon="-84.1706248"><ele>990.0</ele><time>2026-04-02T11:52:47.976Z</time></trkpt></trkseg></trk></gpx>